Wetterdaten: Dienstag, 04.08.2015
Datum Zeit Temp. Aussen +5cm Feuchte Auss BlattFeu 1 Luftdruck Regen Sonnenschein Regendauer Solar Windben
04.08.2015 00:00 22,3 C 18,9 C 69 % 0 lf 1011,6 hPa 0,0 l/m 0 min 0 min 0 W/m 4,2 km/h (1 Bft)
04.08.2015 00:02 22,3 C 18,9 C 69 % 0 lf 1011,6 hPa 0,0 l/m 0 min 0 min 0 W/m 12,6 km/h (3 Bft)
04.08.2015 00:05 22,2 C 18,9 C 70 % 0 lf 1011,5 hPa 0,0 l/m 0 min 0 min 0 W/m 4,2 km/h (1 Bft)
04.08.2015 00:08 22,2 C 18,9 C 69 % 0 lf 1011,5 hPa 0,0 l/m 0 min 0 min 0 W/m 4,2 km/h (1 Bft)
04.08.2015 00:10 22,1 C 18,9 C 69 % 0 lf 1011,6 hPa 0,0 l/m 0 min 0 min 0 W/m 0,0 km/h (0 Bft)
04.08.2015 00:12 22,1 C 18,9 C 69 % 0 lf 1011,5 hPa 0,0 l/m 0 min 0 min 0 W/m 0,0 km/h (0 Bft)
04.08.2015 00:14 22,0 C 18,9 C 69 % 0 lf 1011,5 hPa 0,0 l/m 0 min 0 min 0 W/m 0,0 km/h (0 Bft)
04.08.2015 00:16 22,0 C 18,9 C 69 % 0 lf 1011,4 hPa 0,0 l/m 0 min 0 min 0 W/m 0,0 km/h (0 Bft)
04.08.2015 00:18 21,9 C 18,9 C 69 % 0 lf 1011,4 hPa 0,0 l/m 0 min 0 min 0 W/m 0,0 km/h (0 Bft)
04.08.2015 00:20 21,9 C 18,3 C 70 % 0 lf 1011,4 hPa 0,0 l/m 0 min 0 min 0 W/m 0,0 km/h (0 Bft)
04.08.2015 00:22 21,9 C 18,3 C 70 % 0 lf 1011,4 hPa 0,0 l/m 0 min 0 min 0 W/m 2,1 km/h (1 Bft)
04.08.2015 00:24 21,8 C 18,3 C 70 % 0 lf 1011,4 hPa 0,0 l/m 0 min 0 min 0 W/m 4,2 km/h (1 Bft)
04.08.2015 00:26 21,8 C 18,3 C 70 % 0 lf 1011,4 hPa 0,0 l/m 0 min 0 min 0 W/m 4,2 km/h (1 Bft)
04.08.2015 00:28 21,8 C 18,3 C 70 % 0 lf 1011,3 hPa 0,0 l/m 0 min 0 min 0 W/m 4,2 km/h (1 Bft)
04.08.2015 00:30 21,7 C 18,3 C 71 % 0 lf 1011,3 hPa 0,0 l/m 0 min 0 min 0 W/m 4,2 km/h (1 Bft)
04.08.2015 00:32 21,7 C 18,3 C 71 % 0 lf 1011,2 hPa 0,0 l/m 0 min 0 min 0 W/m 4,2 km/h (1 Bft)
04.08.2015 00:34 21,7 C 18,3 C 71 % 0 lf 1011,2 hPa 0,0 l/m 0 min 0 min 0 W/m 4,2 km/h (1 Bft)
04.08.2015 00:36 21,6 C 18,3 C 71 % 0 lf 1011,1 hPa 0,0 l/m 0 min 0 min 0 W/m 4,2 km/h (1 Bft)
04.08.2015 00:38 21,6 C 18,3 C 72 % 0 lf 1011,1 hPa 0,0 l/m 0 min 0 min 0 W/m 4,2 km/h (1 Bft)
04.08.2015 00:40 21,5 C 18,3 C 72 % 0 lf 1011,1 hPa 0,0 l/m 0 min 0 min 0 W/m 4,2 km/h (1 Bft)
04.08.2015 00:42 21,5 C 18,3 C 71 % 0 lf 1011,1 hPa 0,0 l/m 0 min 0 min 0 W/m 2,1 km/h (1 Bft)
04.08.2015 00:44 21,4 C 18,3 C 71 % 0 lf 1011,1 hPa 0,0 l/m 0 min 0 min 0 W/m 2,1 km/h (1 Bft)
04.08.2015 00:46 21,4 C 18,3 C 71 % 0 lf 1011,1 hPa 0,0 l/m 0 min 0 min 0 W/m 2,1 km/h (1 Bft)
04.08.2015 00:48 21,4 C 18,3 C 71 % 0 lf 1011,1 hPa 0,0 l/m 0 min 0 min 0 W/m 2,1 km/h (1 Bft)
04.08.2015 00:50 21,3 C 17,8 C 72 % 0 lf 1011,1 hPa 0,0 l/m 0 min 0 min 0 W/m 4,2 km/h (1 Bft)
04.08.2015 00:52 21,3 C 17,8 C 72 % 0 lf 1011,1 hPa 0,0 l/m 0 min 0 min 0 W/m 6,3 km/h (2 Bft)
04.08.2015 00:54 21,3 C 17,8 C 72 % 0 lf 1011,1 hPa 0,0 l/m 0 min 0 min 0 W/m 6,3 km/h (2 Bft)
04.08.2015 00:56 21,2 C 17,8 C 72 % 0 lf 1011,0 hPa 0,0 l/m 0 min 0 min 0 W/m 4,2 km/h (1 Bft)
04.08.2015 00:58 21,2 C 17,8 C 72 % 0 lf 1011,1 hPa 0,0 l/m 0 min 0 min 0 W/m 2,1 km/h (1 Bft)
04.08.2015 01:00 21,2 C 17,8 C 72 % 0 lf 1011,0 hPa 0,0 l/m 0 min 0 min 0 W/m 0,0 km/h (0 Bft)
04.08.2015 01:02 21,2 C 17,8 C 72 % 0 lf 1011,0 hPa 0,0 l/m 0 min 0 min 0 W/m 2,1 km/h (1 Bft)
04.08.2015 01:04 21,1 C 17,8 C 72 % 0 lf 1011,0 hPa 0,0 l/m 0 min 0 min 0 W/m 6,3 km/h (2 Bft)
04.08.2015 01:06 21,1 C 18,3 C 72 % 0 lf 1010,9 hPa 0,0 l/m 0 min 0 min 0 W/m 8,4 km/h (2 Bft)
04.08.2015 01:08 21,1 C 18,3 C 73 % 0 lf 1010,9 hPa 0,0 l/m 0 min 0 min 0 W/m 6,3 km/h (2 Bft)
04.08.2015 01:10 21,0 C 18,3 C 72 % 0 lf 1010,9 hPa 0,0 l/m 0 min 0 min 0 W/m 4,2 km/h (1 Bft)
04.08.2015 01:12 21,0 C 18,3 C 73 % 0 lf 1010,8 hPa 0,0 l/m 0 min 0 min 0 W/m 2,1 km/h (1 Bft)
04.08.2015 01:14 21,0 C 18,3 C 73 % 0 lf 1010,9 hPa 0,0 l/m 0 min 0 min 0 W/m 2,1 km/h (1 Bft)
04.08.2015 01:16 20,9 C 18,3 C 73 % 0 lf 1010,9 hPa 0,0 l/m 0 min 0 min 0 W/m 2,1 km/h (1 Bft)
04.08.2015 01:18 20,9 C 17,8 C 74 % 0 lf 1010,9 hPa 0,0 l/m 0 min 0 min 0 W/m 4,2 km/h (1 Bft)
04.08.2015 01:20 20,9 C 17,8 C 74 % 0 lf 1010,8 hPa 0,0 l/m 0 min 0 min 0 W/m 4,2 km/h (1 Bft)
04.08.2015 01:22 20,9 C 17,8 C 74 % 0 lf 1010,9 hPa 0,0 l/m 0 min 0 min 0 W/m 4,2 km/h (1 Bft)
04.08.2015 01:24 20,8 C 17,8 C 74 % 0 lf 1010,7 hPa 0,0 l/m 0 min 0 min 0 W/m 4,2 km/h (1 Bft)
04.08.2015 01:26 20,8 C 17,8 C 74 % 0 lf 1010,6 hPa 0,0 l/m 0 min 0 min 0 W/m 4,2 km/h (1 Bft)
04.08.2015 01:28 20,8 C 17,8 C 74 % 0 lf 1010,7 hPa 0,0 l/m 0 min 0 min 0 W/m 4,2 km/h (1 Bft)
04.08.2015 01:30 20,8 C 17,8 C 74 % 0 lf 1010,6 hPa 0,0 l/m 0 min 0 min 0 W/m 4,2 km/h (1 Bft)
04.08.2015 01:32 20,7 C 17,8 C 74 % 0 lf 1010,5 hPa 0,0 l/m 0 min 0 min 0 W/m 6,3 km/h (2 Bft)
04.08.2015 01:34 20,7 C 17,8 C 74 % 0 lf 1010,4 hPa 0,0 l/m 0 min 0 min 0 W/m 6,3 km/h (2 Bft)
04.08.2015 01:36 20,7 C 17,8 C 75 % 0 lf 1010,4 hPa 0,0 l/m 0 min 0 min 0 W/m 6,3 km/h (2 Bft)
04.08.2015 01:38 20,6 C 17,8 C 75 % 0 lf 1010,3 hPa 0,0 l/m 0 min 0 min 0 W/m 6,3 km/h (2 Bft)
04.08.2015 01:40 20,6 C 17,8 C 75 % 0 lf 1010,3 hPa 0,0 l/m 0 min 0 min 0 W/m 6,3 km/h (2 Bft)
04.08.2015 01:42 20,6 C 17,8 C 75 % 0 lf 1010,3 hPa 0,0 l/m 0 min 0 min 0 W/m 6,3 km/h (2 Bft)
04.08.2015 01:44 20,6 C 17,8 C 75 % 0 lf 1010,3 hPa 0,0 l/m 0 min 0 min 0 W/m 8,4 km/h (2 Bft)
04.08.2015 01:46 20,5 C 17,8 C 75 % 0 lf 1010,3 hPa 0,0 l/m 0 min 0 min 0 W/m 6,3 km/h (2 Bft)
04.08.2015 01:48 20,5 C 17,8 C 75 % 0 lf 1010,3 hPa 0,0 l/m 0 min 0 min 0 W/m 6,3 km/h (2 Bft)
04.08.2015 01:50 20,5 C 17,8 C 75 % 0 lf 1010,3 hPa 0,0 l/m 0 min 0 min 0 W/m 4,2 km/h (1 Bft)
04.08.2015 01:52 20,5 C 17,8 C 74 % 0 lf 1010,3 hPa 0,0 l/m 0 min 0 min 0 W/m 6,3 km/h (2 Bft)
04.08.2015 01:54 20,4 C 17,8 C 75 % 0 lf 1010,3 hPa 0,0 l/m 0 min 0 min 0 W/m 4,2 km/h (1 Bft)
04.08.2015 01:56 20,4 C 17,8 C 74 % 0 lf 1010,3 hPa 0,0 l/m 0 min 0 min 0 W/m 6,3 km/h (2 Bft)
04.08.2015 01:58 20,4 C 17,8 C 74 % 0 lf 1010,2 hPa 0,0 l/m 0 min 0 min 0 W/m 10,5 km/h (2 Bft)
04.08.2015 02:00 20,4 C 17,8 C 74 % 0 lf 1010,3 hPa 0,0 l/m 0 min 0 min 0 W/m 8,4 km/h (2 Bft)
04.08.2015 02:02 20,4 C 18,3 C 74 % 0 lf 1010,2 hPa 0,0 l/m 0 min 0 min 0 W/m 10,5 km/h (2 Bft)
04.08.2015 02:04 20,4 C 18,3 C 75 % 0 lf 1010,1 hPa 0,0 l/m 0 min 0 min 0 W/m 8,4 km/h (2 Bft)
04.08.2015 02:06 20,4 C 18,3 C 75 % 0 lf 1010,2 hPa 0,0 l/m 0 min 0 min 0 W/m 8,4 km/h (2 Bft)
04.08.2015 02:08 20,4 C 18,3 C 75 % 0 lf 1010,1 hPa 0,0 l/m 0 min 0 min 0 W/m 10,5 km/h (2 Bft)
04.08.2015 02:10 20,4 C 18,3 C 75 % 0 lf 1010,2 hPa 0,0 l/m 0 min 0 min 0 W/m 10,5 km/h (2 Bft)
04.08.2015 02:12 20,4 C 18,9 C 75 % 0 lf 1010,1 hPa 0,0 l/m 0 min 0 min 0 W/m 8,4 km/h (2 Bft)
04.08.2015 02:14 20,4 C 18,3 C 75 % 0 lf 1010,1 hPa 0,0 l/m 0 min 0 min 0 W/m 6,3 km/h (2 Bft)
04.08.2015 02:16 20,4 C 18,3 C 75 % 0 lf 1010,1 hPa 0,0 l/m 0 min 0 min 0 W/m 4,2 km/h (1 Bft)
04.08.2015 02:18 20,4 C 18,3 C 74 % 0 lf 1010,1 hPa 0,0 l/m 0 min 0 min 0 W/m 6,3 km/h (2 Bft)
04.08.2015 02:20 20,4 C 18,3 C 74 % 0 lf 1010,1 hPa 0,0 l/m 0 min 0 min 0 W/m 6,3 km/h (2 Bft)
04.08.2015 02:22 20,4 C 18,3 C 75 % 0 lf 1010,1 hPa 0,0 l/m 0 min 0 min 0 W/m 6,3 km/h (2 Bft)
04.08.2015 02:24 20,4 C 18,3 C 75 % 0 lf 1010,1 hPa 0,0 l/m 0 min 0 min 0 W/m 6,3 km/h (2 Bft)
04.08.2015 02:26 20,4 C 18,3 C 74 % 0 lf 1010,1 hPa 0,0 l/m 0 min 0 min 0 W/m 4,2 km/h (1 Bft)
04.08.2015 02:28 20,4 C 18,3 C 74 % 0 lf 1010,0 hPa 0,0 l/m 0 min 0 min 0 W/m 6,3 km/h (2 Bft)
04.08.2015 02:30 20,4 C 18,3 C 74 % 0 lf 1010,0 hPa 0,0 l/m 0 min 0 min 0 W/m 4,2 km/h (1 Bft)
04.08.2015 02:32 20,5 C 18,3 C 74 % 0 lf 1010,0 hPa 0,0 l/m 0 min 0 min 0 W/m 6,3 km/h (2 Bft)
04.08.2015 02:34 20,5 C 18,3 C 74 % 0 lf 1010,0 hPa 0,0 l/m 0 min 0 min 0 W/m 6,3 km/h (2 Bft)
04.08.2015 02:36 20,5 C 18,3 C 74 % 0 lf 1009,9 hPa 0,0 l/m 0 min 0 min 0 W/m 8,4 km/h (2 Bft)
04.08.2015 02:38 20,5 C 18,3 C 74 % 0 lf 1009,9 hPa 0,0 l/m 0 min 0 min 0 W/m 6,3 km/h (2 Bft)
04.08.2015 02:40 20,5 C 18,3 C 74 % 0 lf 1009,9 hPa 0,0 l/m 0 min 0 min 0 W/m 8,4 km/h (2 Bft)
04.08.2015 02:42 20,5 C 18,3 C 74 % 0 lf 1009,9 hPa 0,0 l/m 0 min 0 min 0 W/m 10,5 km/h (2 Bft)
04.08.2015 02:44 20,5 C 18,3 C 74 % 0 lf 1009,8 hPa 0,0 l/m 0 min 0 min 0 W/m 8,4 km/h (2 Bft)
04.08.2015 02:46 20,5 C 18,3 C 74 % 0 lf 1009,7 hPa 0,0 l/m 0 min 0 min 0 W/m 10,5 km/h (2 Bft)
04.08.2015 02:48 20,5 C 18,3 C 74 % 0 lf 1009,7 hPa 0,0 l/m 0 min 0 min 0 W/m 10,5 km/h (2 Bft)
04.08.2015 02:50 20,5 C 18,3 C 74 % 0 lf 1009,7 hPa 0,0 l/m 0 min 0 min 0 W/m 10,5 km/h (2 Bft)
04.08.2015 02:52 20,5 C 18,3 C 74 % 0 lf 1009,7 hPa 0,0 l/m 0 min 0 min 0 W/m 10,5 km/h (2 Bft)
04.08.2015 02:54 20,5 C 18,9 C 74 % 0 lf 1009,7 hPa 0,0 l/m 0 min 0 min 0 W/m 12,6 km/h (3 Bft)
04.08.2015 02:56 20,6 C 18,9 C 73 % 0 lf 1009,7 hPa 0,0 l/m 0 min 0 min 0 W/m 12,6 km/h (3 Bft)
04.08.2015 02:58 20,6 C 18,9 C 73 % 0 lf 1009,6 hPa 0,0 l/m 0 min 0 min 0 W/m 12,6 km/h (3 Bft)
04.08.2015 03:00 20,6 C 18,9 C 73 % 0 lf 1009,6 hPa 0,0 l/m 0 min 0 min 0 W/m 10,5 km/h (2 Bft)
04.08.2015 03:02 20,6 C 18,9 C 73 % 0 lf 1009,5 hPa 0,0 l/m 0 min 0 min 0 W/m 8,4 km/h (2 Bft)
04.08.2015 03:04 20,6 C 18,9 C 73 % 0 lf 1009,5 hPa 0,0 l/m 0 min 0 min 0 W/m 14,6 km/h (3 Bft)
04.08.2015 03:06 20,7 C 18,9 C 73 % 0 lf 1009,5 hPa 0,0 l/m 0 min 0 min 0 W/m 14,6 km/h (3 Bft)
04.08.2015 03:08 20,7 C 18,9 C 73 % 0 lf 1009,5 hPa 0,0 l/m 0 min 0 min 0 W/m 8,4 km/h (2 Bft)
04.08.2015 03:10 20,7 C 18,9 C 72 % 0 lf 1009,5 hPa 0,0 l/m 0 min 0 min 0 W/m 14,6 km/h (3 Bft)
04.08.2015 03:12 20,8 C 18,9 C 72 % 0 lf 1009,5 hPa 0,0 l/m 0 min 0 min 0 W/m 12,6 km/h (3 Bft)
04.08.2015 03:14 20,8 C 18,9 C 72 % 0 lf 1009,4 hPa 0,0 l/m 0 min 0 min 0 W/m 14,6 km/h (3 Bft)
04.08.2015 03:16 20,8 C 18,9 C 72 % 0 lf 1009,4 hPa 0,0 l/m 0 min 0 min 0 W/m 14,6 km/h (3 Bft)
04.08.2015 03:18 20,8 C 19,4 C 72 % 0 lf 1009,4 hPa 0,0 l/m 0 min 0 min 0 W/m 14,6 km/h (3 Bft)
04.08.2015 03:20 20,9 C 19,4 C 72 % 0 lf 1009,4 hPa 0,0 l/m 0 min 0 min 0 W/m 14,6 km/h (3 Bft)
04.08.2015 03:22 20,9 C 19,4 C 72 % 0 lf 1009,3 hPa 0,0 l/m 0 min 0 min 0 W/m 16,7 km/h (3 Bft)
04.08.2015 03:24 20,9 C 19,4 C 72 % 0 lf 1009,2 hPa 0,0 l/m 0 min 0 min 0 W/m 10,5 km/h (2 Bft)
04.08.2015 03:26 20,9 C 19,4 C 72 % 0 lf 1009,2 hPa 0,0 l/m 0 min 0 min 0 W/m 14,6 km/h (3 Bft)
04.08.2015 03:28 21,0 C 19,4 C 71 % 0 lf 1009,2 hPa 0,0 l/m 0 min 0 min 0 W/m 10,5 km/h (2 Bft)
04.08.2015 03:30 21,0 C 19,4 C 71 % 0 lf 1009,2 hPa 0,0 l/m 0 min 0 min 0 W/m 10,5 km/h (2 Bft)
04.08.2015 03:32 21,0 C 19,4 C 71 % 0 lf 1009,2 hPa 0,0 l/m 0 min 0 min 0 W/m 12,6 km/h (3 Bft)
04.08.2015 03:34 21,0 C 18,9 C 71 % 0 lf 1009,1 hPa 0,0 l/m 0 min 0 min 0 W/m 12,6 km/h (3 Bft)
04.08.2015 03:36 21,0 C 18,9 C 71 % 0 lf 1009,1 hPa 0,0 l/m 0 min 0 min 0 W/m 12,6 km/h (3 Bft)
04.08.2015 03:38 21,1 C 18,9 C 71 % 0 lf 1009,2 hPa 0,0 l/m 0 min 0 min 0 W/m 8,4 km/h (2 Bft)
04.08.2015 03:40 21,1 C 19,4 C 71 % 0 lf 1009,2 hPa 0,0 l/m 0 min 0 min 0 W/m 14,6 km/h (3 Bft)
04.08.2015 03:42 21,1 C 18,9 C 71 % 0 lf 1009,1 hPa 0,0 l/m 0 min 0 min 0 W/m 10,5 km/h (2 Bft)
04.08.2015 03:44 21,1 C 18,9 C 71 % 0 lf 1009,2 hPa 0,0 l/m 0 min 0 min 0 W/m 8,4 km/h (2 Bft)
04.08.2015 03:46 21,1 C 18,9 C 71 % 0 lf 1009,2 hPa 0,0 l/m 0 min 0 min 0 W/m 8,4 km/h (2 Bft)
04.08.2015 03:48 21,1 C 18,9 C 71 % 0 lf 1009,2 hPa 0,0 l/m 0 min 0 min 0 W/m 10,5 km/h (2 Bft)
04.08.2015 03:50 21,1 C 18,9 C 71 % 0 lf 1009,1 hPa 0,0 l/m 0 min 0 min 0 W/m 12,6 km/h (3 Bft)
04.08.2015 03:52 21,1 C 18,9 C 71 % 0 lf 1009,1 hPa 0,0 l/m 0 min 0 min 0 W/m 14,6 km/h (3 Bft)
04.08.2015 03:54 21,0 C 18,9 C 71 % 0 lf 1009,0 hPa 0,0 l/m 0 min 0 min 0 W/m 16,7 km/h (3 Bft)
04.08.2015 03:56 21,0 C 18,9 C 71 % 0 lf 1009,0 hPa 0,0 l/m 0 min 0 min 0 W/m 12,6 km/h (3 Bft)
04.08.2015 03:58 21,0 C 18,9 C 71 % 0 lf 1008,9 hPa 0,0 l/m 0 min 0 min 0 W/m 12,6 km/h (3 Bft)
04.08.2015 04:00 21,0 C 18,9 C 71 % 0 lf 1008,9 hPa 0,0 l/m 0 min 0 min 0 W/m 14,6 km/h (3 Bft)
04.08.2015 04:05 20,9 C 18,9 C 71 % 0 lf 1008,9 hPa 0,0 l/m 0 min 0 min 0 W/m 14,6 km/h (3 Bft)
04.08.2015 04:06 20,9 C 18,9 C 71 % 0 lf 1008,9 hPa 0,0 l/m 0 min 0 min 0 W/m 10,5 km/h (2 Bft)
04.08.2015 04:08 20,9 C 18,9 C 71 % 0 lf 1008,9 hPa 0,0 l/m 0 min 0 min 0 W/m 14,6 km/h (3 Bft)
04.08.2015 04:10 20,9 C 18,9 C 71 % 0 lf 1008,8 hPa 0,0 l/m 0 min 0 min 0 W/m 10,5 km/h (2 Bft)
04.08.2015 04:12 20,9 C 18,9 C 71 % 0 lf 1008,7 hPa 0,0 l/m 0 min 0 min 0 W/m 10,5 km/h (2 Bft)
04.08.2015 04:14 20,9 C 18,9 C 71 % 0 lf 1008,9 hPa 0,0 l/m 0 min 0 min 0 W/m 12,6 km/h (3 Bft)
04.08.2015 04:16 20,8 C 18,9 C 71 % 0 lf 1008,8 hPa 0,0 l/m 0 min 0 min 0 W/m 14,6 km/h (3 Bft)
04.08.2015 04:18 20,8 C 18,9 C 71 % 0 lf 1008,7 hPa 0,0 l/m 0 min 0 min 0 W/m 10,5 km/h (2 Bft)
04.08.2015 04:20 20,8 C 18,9 C 71 % 0 lf 1008,7 hPa 0,0 l/m 0 min 0 min 0 W/m 16,7 km/h (3 Bft)
04.08.2015 04:22 20,8 C 18,9 C 71 % 0 lf 1008,7 hPa 0,0 l/m 0 min 0 min 0 W/m 16,7 km/h (3 Bft)
04.08.2015 04:24 20,8 C 18,9 C 71 % 0 lf 1008,6 hPa 0,0 l/m 0 min 0 min 0 W/m 14,6 km/h (3 Bft)
04.08.2015 04:26 20,8 C 18,9 C 71 % 0 lf 1008,6 hPa 0,0 l/m 0 min 0 min 0 W/m 14,6 km/h (3 Bft)
04.08.2015 04:28 20,8 C 18,9 C 70 % 0 lf 1008,5 hPa 0,0 l/m 0 min 0 min 0 W/m 14,6 km/h (3 Bft)
04.08.2015 04:30 20,8 C 18,9 C 71 % 0 lf 1008,5 hPa 0,0 l/m 0 min 0 min 0 W/m 14,6 km/h (3 Bft)
04.08.2015 04:32 20,7 C 18,9 C 70 % 0 lf 1008,5 hPa 0,0 l/m 0 min 0 min 0 W/m 14,6 km/h (3 Bft)
04.08.2015 04:34 20,7 C 18,9 C 70 % 0 lf 1008,5 hPa 0,0 l/m 0 min 0 min 0 W/m 16,7 km/h (3 Bft)
04.08.2015 04:36 20,7 C 18,9 C 70 % 0 lf 1008,5 hPa 0,0 l/m 0 min 0 min 0 W/m 14,6 km/h (3 Bft)
04.08.2015 04:38 20,7 C 18,9 C 70 % 0 lf 1008,5 hPa 0,0 l/m 0 min 0 min 0 W/m 16,7 km/h (3 Bft)
04.08.2015 04:40 20,7 C 18,9 C 70 % 0 lf 1008,4 hPa 0,0 l/m 0 min 0 min 0 W/m 14,6 km/h (3 Bft)
04.08.2015 04:42 20,7 C 18,9 C 70 % 0 lf 1008,5 hPa 0,0 l/m 0 min 0 min 0 W/m 12,6 km/h (3 Bft)
04.08.2015 04:44 20,7 C 18,9 C 70 % 0 lf 1008,5 hPa 0,0 l/m 0 min 0 min 0 W/m 14,6 km/h (3 Bft)
04.08.2015 04:46 20,7 C 18,9 C 70 % 0 lf 1008,5 hPa 0,0 l/m 0 min 0 min 0 W/m 10,5 km/h (2 Bft)
04.08.2015 04:48 20,7 C 18,9 C 70 % 0 lf 1008,5 hPa 0,0 l/m 0 min 0 min 0 W/m 14,6 km/h (3 Bft)
04.08.2015 04:50 20,7 C 18,9 C 70 % 0 lf 1008,4 hPa 0,0 l/m 0 min 0 min 0 W/m 12,6 km/h (3 Bft)
04.08.2015 04:52 20,7 C 18,9 C 70 % 0 lf 1008,4 hPa 0,0 l/m 0 min 0 min 0 W/m 14,6 km/h (3 Bft)
04.08.2015 04:54 20,7 C 18,9 C 70 % 0 lf 1008,3 hPa 0,0 l/m 0 min 0 min 0 W/m 16,7 km/h (3 Bft)
04.08.2015 04:56 20,7 C 18,9 C 70 % 0 lf 1008,3 hPa 0,0 l/m 0 min 0 min 0 W/m 12,6 km/h (3 Bft)
04.08.2015 04:58 20,7 C 18,9 C 70 % 0 lf 1008,3 hPa 0,0 l/m 0 min 0 min 0 W/m 16,7 km/h (3 Bft)
04.08.2015 05:00 20,7 C 18,9 C 70 % 0 lf 1008,4 hPa 0,0 l/m 0 min 0 min 0 W/m 14,6 km/h (3 Bft)
04.08.2015 05:02 20,7 C 18,9 C 70 % 0 lf 1008,2 hPa 0,0 l/m 0 min 0 min 0 W/m 14,6 km/h (3 Bft)
04.08.2015 05:04 20,7 C 18,9 C 70 % 0 lf 1008,3 hPa 0,0 l/m 0 min 0 min 0 W/m 14,6 km/h (3 Bft)
04.08.2015 05:06 20,7 C 18,9 C 70 % 0 lf 1008,3 hPa 0,0 l/m 0 min 0 min 0 W/m 14,6 km/h (3 Bft)
04.08.2015 05:08 20,7 C 18,9 C 70 % 0 lf 1008,3 hPa 0,0 l/m 0 min 0 min 0 W/m 12,6 km/h (3 Bft)
04.08.2015 05:10 20,7 C 18,9 C 70 % 0 lf 1008,4 hPa 0,0 l/m 0 min 0 min 0 W/m 12,6 km/h (3 Bft)
04.08.2015 05:12 20,7 C 18,9 C 70 % 0 lf 1008,5 hPa 0,0 l/m 0 min 0 min 0 W/m 16,7 km/h (3 Bft)
04.08.2015 05:14 20,7 C 18,9 C 70 % 0 lf 1008,4 hPa 0,0 l/m 0 min 0 min 0 W/m 10,5 km/h (2 Bft)
04.08.2015 05:16 20,7 C 18,9 C 70 % 0 lf 1008,5 hPa 0,0 l/m 0 min 0 min 0 W/m 14,6 km/h (3 Bft)
04.08.2015 05:18 20,7 C 18,9 C 70 % 0 lf 1008,4 hPa 0,0 l/m 0 min 0 min 0 W/m 18,8 km/h (3 Bft)
04.08.2015 05:20 20,8 C 18,9 C 70 % 0 lf 1008,2 hPa 0,0 l/m 0 min 0 min 0 W/m 18,8 km/h (3 Bft)
04.08.2015 05:22 20,8 C 18,9 C 71 % 0 lf 1008,2 hPa 0,0 l/m 0 min 0 min 0 W/m 14,6 km/h (3 Bft)
04.08.2015 05:24 20,8 C 18,9 C 71 % 0 lf 1008,2 hPa 0,0 l/m 0 min 0 min 0 W/m 14,6 km/h (3 Bft)
04.08.2015 05:26 20,8 C 18,9 C 70 % 0 lf 1008,2 hPa 0,0 l/m 0 min 0 min 0 W/m 20,9 km/h (4 Bft)
04.08.2015 05:28 20,8 C 18,9 C 71 % 0 lf 1008,1 hPa 0,0 l/m 0 min 0 min 0 W/m 16,7 km/h (3 Bft)
04.08.2015 05:30 20,8 C 18,9 C 70 % 0 lf 1008,1 hPa 0,0 l/m 0 min 0 min 0 W/m 18,8 km/h (3 Bft)
04.08.2015 05:32 20,8 C 18,9 C 70 % 0 lf 1008,1 hPa 0,0 l/m 0 min 0 min 0 W/m 14,6 km/h (3 Bft)
04.08.2015 05:34 20,8 C 18,9 C 70 % 0 lf 1008,1 hPa 0,0 l/m 0 min 0 min 0 W/m 20,9 km/h (4 Bft)
04.08.2015 05:36 20,8 C 18,9 C 70 % 0 lf 1008,0 hPa 0,0 l/m 0 min 0 min 0 W/m 14,6 km/h (3 Bft)
04.08.2015 05:38 20,8 C 18,9 C 70 % 0 lf 1008,0 hPa 0,0 l/m 0 min 0 min 0 W/m 16,7 km/h (3 Bft)
04.08.2015 05:40 20,8 C 18,9 C 70 % 0 lf 1008,0 hPa 0,0 l/m 0 min 0 min 0 W/m 18,8 km/h (3 Bft)
04.08.2015 05:42 20,8 C 19,4 C 70 % 0 lf 1008,0 hPa 0,0 l/m 0 min 0 min 0 W/m 14,6 km/h (3 Bft)
04.08.2015 05:44 20,8 C 19,4 C 70 % 0 lf 1008,0 hPa 0,0 l/m 0 min 0 min 0 W/m 18,8 km/h (3 Bft)
04.08.2015 05:46 20,9 C 19,4 C 70 % 0 lf 1008,0 hPa 0,0 l/m 0 min 0 min 0 W/m 14,6 km/h (3 Bft)
04.08.2015 05:48 20,9 C 19,4 C 70 % 0 lf 1007,9 hPa 0,0 l/m 0 min 0 min 2 W/m 12,6 km/h (3 Bft)
04.08.2015 05:50 20,9 C 19,4 C 70 % 0 lf 1007,9 hPa 0,0 l/m 0 min 0 min 5 W/m 16,7 km/h (3 Bft)
04.08.2015 05:52 20,9 C 19,4 C 70 % 0 lf 1008,0 hPa 0,0 l/m 0 min 0 min 5 W/m 16,7 km/h (3 Bft)
04.08.2015 05:54 20,9 C 19,4 C 70 % 0 lf 1007,9 hPa 0,0 l/m 0 min 0 min 6 W/m 18,8 km/h (3 Bft)
04.08.2015 05:56 20,9 C 19,4 C 70 % 0 lf 1008,0 hPa 0,0 l/m 0 min 0 min 7 W/m 18,8 km/h (3 Bft)
04.08.2015 05:58 21,0 C 19,4 C 70 % 0 lf 1008,0 hPa 0,0 l/m 0 min 0 min 7 W/m 16,7 km/h (3 Bft)
04.08.2015 06:00 21,0 C 19,4 C 70 % 0 lf 1007,9 hPa 0,0 l/m 0 min 0 min 7 W/m 14,6 km/h (3 Bft)
04.08.2015 06:02 21,0 C 19,4 C 70 % 0 lf 1008,0 hPa 0,0 l/m 0 min 0 min 6 W/m 12,6 km/h (3 Bft)
04.08.2015 06:05 21,0 C 19,4 C 70 % 0 lf 1008,0 hPa 0,0 l/m 0 min 0 min 7 W/m 10,5 km/h (2 Bft)
04.08.2015 06:06 21,1 C 19,4 C 70 % 0 lf 1008,0 hPa 0,0 l/m 0 min 0 min 6 W/m 12,6 km/h (3 Bft)
04.08.2015 06:08 21,1 C 19,4 C 70 % 0 lf 1008,0 hPa 0,0 l/m 0 min 0 min 6 W/m 12,6 km/h (3 Bft)
04.08.2015 06:10 21,1 C 19,4 C 70 % 0 lf 1007,9 hPa 0,0 l/m 0 min 0 min 5 W/m 10,5 km/h (2 Bft)
04.08.2015 06:12 21,1 C 19,4 C 70 % 0 lf 1008,0 hPa 0,0 l/m 0 min 0 min 5 W/m 10,5 km/h (2 Bft)
04.08.2015 06:14 21,1 C 19,4 C 70 % 0 lf 1008,1 hPa 0,0 l/m 0 min 0 min 5 W/m 12,6 km/h (3 Bft)
04.08.2015 06:16 21,1 C 19,4 C 70 % 0 lf 1008,0 hPa 0,0 l/m 0 min 0 min 5 W/m 16,7 km/h (3 Bft)
04.08.2015 06:18 21,1 C 19,4 C 70 % 0 lf 1008,0 hPa 0,0 l/m 0 min 0 min 5 W/m 14,6 km/h (3 Bft)
04.08.2015 06:20 21,1 C 19,4 C 70 % 0 lf 1008,0 hPa 0,0 l/m 0 min 2 min 5 W/m 12,6 km/h (3 Bft)
04.08.2015 06:22 21,1 C 19,4 C 70 % 0 lf 1008,1 hPa 0,0 l/m 0 min 2 min 5 W/m 10,5 km/h (2 Bft)
04.08.2015 06:24 21,1 C 19,4 C 70 % 0 lf 1008,1 hPa 0,0 l/m 0 min 0 min 5 W/m 14,6 km/h (3 Bft)
04.08.2015 06:26 21,2 C 19,4 C 70 % 0 lf 1008,2 hPa 0,0 l/m 0 min 0 min 5 W/m 14,6 km/h (3 Bft)
04.08.2015 06:28 21,2 C 18,9 C 71 % 0 lf 1008,2 hPa 0,0 l/m 0 min 2 min 5 W/m 16,7 km/h (3 Bft)
04.08.2015 06:30 21,2 C 18,9 C 71 % 0 lf 1008,5 hPa 0,0 l/m 0 min 2 min 5 W/m 20,9 km/h (4 Bft)
04.08.2015 06:32 21,2 C 18,9 C 71 % 0 lf 1008,8 hPa 0,0 l/m 0 min 0 min 5 W/m 16,7 km/h (3 Bft)
04.08.2015 06:34 21,2 C 18,9 C 71 % 0 lf 1008,9 hPa 0,0 l/m 0 min 0 min 6 W/m 14,6 km/h (3 Bft)
04.08.2015 06:36 21,2 C 17,8 C 72 % 14 lf 1009,1 hPa 0,0 l/m 0 min 2 min 5 W/m 10,5 km/h (2 Bft)
04.08.2015 06:38 21,3 C 17,2 C 73 % 11 lf 1009,6 hPa 0,0 l/m 0 min 2 min 5 W/m 16,7 km/h (3 Bft)
04.08.2015 06:40 21,3 C 16,7 C 74 % 0 lf 1010,2 hPa 0,0 l/m 0 min 2 min 5 W/m 20,9 km/h (4 Bft)
04.08.2015 06:42 21,3 C 16,7 C 74 % 0 lf 1010,2 hPa 0,0 l/m 0 min 0 min 5 W/m 23,0 km/h (4 Bft)
04.08.2015 06:44 21,2 C 16,7 C 74 % 15 lf 1009,9 hPa 0,0 l/m 0 min 2 min 5 W/m 10,5 km/h (2 Bft)
04.08.2015 06:46 21,2 C 16,7 C 75 % 15 lf 1010,0 hPa 0,0 l/m 0 min 2 min 7 W/m 14,6 km/h (3 Bft)
04.08.2015 06:48 21,2 C 16,7 C 75 % 15 lf 1009,7 hPa 0,2 l/m 0 min 2 min 7 W/m 10,5 km/h (2 Bft)
04.08.2015 06:50 21,2 C 16,7 C 76 % 15 lf 1009,7 hPa 0,0 l/m 0 min 2 min 9 W/m 8,4 km/h (2 Bft)
04.08.2015 06:52 21,2 C 16,7 C 76 % 15 lf 1009,8 hPa 0,0 l/m 0 min 0 min 9 W/m 4,2 km/h (1 Bft)
04.08.2015 06:54 21,2 C 16,7 C 76 % 15 lf 1009,9 hPa 0,0 l/m 0 min 2 min 9 W/m 6,3 km/h (2 Bft)
04.08.2015 06:56 21,2 C 16,7 C 77 % 15 lf 1009,7 hPa 0,0 l/m 0 min 2 min 9 W/m 6,3 km/h (2 Bft)
04.08.2015 06:58 21,1 C 16,7 C 77 % 15 lf 1009,7 hPa 0,0 l/m 0 min 2 min 9 W/m 2,1 km/h (1 Bft)
04.08.2015 07:00 21,1 C 16,7 C 77 % 15 lf 1009,8 hPa 0,0 l/m 0 min 2 min 9 W/m 2,1 km/h (1 Bft)
04.08.2015 07:02 21,1 C 16,7 C 78 % 15 lf 1009,9 hPa 0,0 l/m 0 min 0 min 9 W/m 6,3 km/h (2 Bft)
04.08.2015 07:04 21,1 C 16,7 C 79 % 15 lf 1009,8 hPa 0,0 l/m 0 min 0 min 9 W/m 6,3 km/h (2 Bft)
04.08.2015 07:06 21,0 C 16,7 C 79 % 15 lf 1009,7 hPa 0,0 l/m 0 min 0 min 9 W/m 2,1 km/h (1 Bft)
04.08.2015 07:08 21,0 C 16,7 C 79 % 15 lf 1009,7 hPa 0,0 l/m 0 min 0 min 11 W/m 4,2 km/h (1 Bft)
04.08.2015 07:10 21,0 C 16,7 C 79 % 15 lf 1009,7 hPa 0,0 l/m 0 min 0 min 12 W/m 4,2 km/h (1 Bft)
04.08.2015 07:12 20,9 C 16,7 C 79 % 15 lf 1009,6 hPa 0,0 l/m 0 min 0 min 12 W/m 4,2 km/h (1 Bft)
04.08.2015 07:14 20,9 C 16,7 C 80 % 15 lf 1009,6 hPa 0,0 l/m 0 min 0 min 13 W/m 4,2 km/h (1 Bft)
04.08.2015 07:16 20,9 C 17,2 C 81 % 15 lf 1009,7 hPa 0,0 l/m 0 min 0 min 14 W/m 4,2 km/h (1 Bft)
04.08.2015 07:18 20,9 C 17,2 C 81 % 15 lf 1009,7 hPa 0,0 l/m 0 min 0 min 16 W/m 4,2 km/h (1 Bft)
04.08.2015 07:20 20,8 C 17,2 C 82 % 15 lf 1009,7 hPa 0,0 l/m 0 min 0 min 19 W/m 6,3 km/h (2 Bft)
04.08.2015 07:22 20,8 C 17,2 C 82 % 15 lf 1009,8 hPa 0,0 l/m 0 min 0 min 20 W/m 6,3 km/h (2 Bft)
04.08.2015 07:24 20,8 C 17,2 C 83 % 15 lf 1009,8 hPa 0,0 l/m 0 min 0 min 21 W/m 6,3 km/h (2 Bft)
04.08.2015 07:26 20,7 C 17,2 C 83 % 15 lf 1009,9 hPa 0,0 l/m 0 min 2 min 22 W/m 8,4 km/h (2 Bft)
04.08.2015 07:28 20,7 C 17,2 C 83 % 15 lf 1010,0 hPa 0,0 l/m 0 min 2 min 25 W/m 6,3 km/h (2 Bft)
04.08.2015 07:30 20,6 C 16,7 C 84 % 15 lf 1010,0 hPa 0,0 l/m 0 min 2 min 27 W/m 6,3 km/h (2 Bft)
04.08.2015 07:32 20,6 C 16,7 C 84 % 15 lf 1009,9 hPa 0,0 l/m 0 min 0 min 26 W/m 4,2 km/h (1 Bft)
04.08.2015 07:34 20,5 C 16,7 C 84 % 15 lf 1010,1 hPa 0,0 l/m 0 min 0 min 21 W/m 6,3 km/h (2 Bft)
04.08.2015 07:36 20,4 C 16,7 C 84 % 15 lf 1010,1 hPa 0,0 l/m 0 min 0 min 14 W/m 6,3 km/h (2 Bft)
04.08.2015 07:38 20,4 C 16,7 C 84 % 15 lf 1010,2 hPa 0,0 l/m 0 min 0 min 12 W/m 8,4 km/h (2 Bft)
04.08.2015 07:40 20,3 C 16,7 C 84 % 14 lf 1010,4 hPa 0,0 l/m 0 min 0 min 11 W/m 8,4 km/h (2 Bft)
04.08.2015 07:42 20,3 C 16,7 C 84 % 15 lf 1010,5 hPa 0,0 l/m 0 min 2 min 12 W/m 8,4 km/h (2 Bft)
04.08.2015 07:44 20,2 C 16,7 C 84 % 15 lf 1010,5 hPa 0,0 l/m 0 min 2 min 14 W/m 4,2 km/h (1 Bft)
04.08.2015 07:46 20,2 C 16,7 C 85 % 15 lf 1010,5 hPa 0,0 l/m 0 min 2 min 16 W/m 10,5 km/h (2 Bft)
04.08.2015 07:48 20,2 C 16,7 C 85 % 15 lf 1010,5 hPa 0,0 l/m 0 min 2 min 18 W/m 12,6 km/h (3 Bft)
04.08.2015 07:50 20,1 C 16,7 C 85 % 15 lf 1010,5 hPa 0,0 l/m 0 min 2 min 18 W/m 10,5 km/h (2 Bft)
04.08.2015 07:52 20,1 C 16,7 C 85 % 15 lf 1010,7 hPa 0,0 l/m 0 min 2 min 19 W/m 10,5 km/h (2 Bft)
04.08.2015 07:54 20,0 C 16,7 C 84 % 15 lf 1010,6 hPa 0,0 l/m 0 min 2 min 21 W/m 14,6 km/h (3 Bft)
04.08.2015 07:56 20,0 C 16,7 C 85 % 15 lf 1010,6 hPa 0,2 l/m 0 min 2 min 25 W/m 12,6 km/h (3 Bft)
04.08.2015 07:58 19,9 C 16,7 C 85 % 15 lf 1010,5 hPa 0,0 l/m 0 min 2 min 27 W/m 10,5 km/h (2 Bft)
04.08.2015 08:00 19,9 C 16,7 C 85 % 15 lf 1010,4 hPa 0,0 l/m 0 min 2 min 31 W/m 10,5 km/h (2 Bft)
04.08.2015 08:02 19,9 C 17,2 C 85 % 15 lf 1010,3 hPa 0,0 l/m 0 min 0 min 30 W/m 8,4 km/h (2 Bft)
04.08.2015 08:04 19,9 C 17,2 C 85 % 15 lf 1010,2 hPa 0,0 l/m 0 min 0 min 30 W/m 8,4 km/h (2 Bft)
04.08.2015 08:06 19,9 C 16,7 C 86 % 15 lf 1010,1 hPa 0,0 l/m 0 min 0 min 31 W/m 6,3 km/h (2 Bft)
04.08.2015 08:08 19,9 C 17,2 C 86 % 15 lf 1010,1 hPa 0,0 l/m 0 min 0 min 33 W/m 6,3 km/h (2 Bft)
04.08.2015 08:10 19,9 C 17,2 C 86 % 15 lf 1010,1 hPa 0,0 l/m 0 min 2 min 33 W/m 6,3 km/h (2 Bft)
04.08.2015 08:12 19,9 C 17,2 C 86 % 15 lf 1010,1 hPa 0,0 l/m 0 min 2 min 35 W/m 4,2 km/h (1 Bft)
04.08.2015 08:14 19,9 C 17,2 C 86 % 15 lf 1010,0 hPa 0,0 l/m 0 min 0 min 37 W/m 6,3 km/h (2 Bft)
04.08.2015 08:16 19,9 C 17,2 C 86 % 15 lf 1010,1 hPa 0,0 l/m 0 min 0 min 39 W/m 6,3 km/h (2 Bft)
04.08.2015 08:18 19,9 C 17,2 C 87 % 15 lf 1010,1 hPa 0,0 l/m 0 min 0 min 39 W/m 8,4 km/h (2 Bft)
04.08.2015 08:20 19,9 C 17,2 C 87 % 14 lf 1010,0 hPa 0,0 l/m 0 min 0 min 37 W/m 10,5 km/h (2 Bft)
04.08.2015 08:22 19,9 C 17,2 C 87 % 14 lf 1009,8 hPa 0,0 l/m 0 min 0 min 34 W/m 6,3 km/h (2 Bft)
04.08.2015 08:24 20,0 C 17,2 C 87 % 13 lf 1009,7 hPa 0,0 l/m 0 min 0 min 32 W/m 6,3 km/h (2 Bft)
04.08.2015 08:26 20,0 C 17,2 C 87 % 7 lf 1009,7 hPa 0,0 l/m 0 min 0 min 30 W/m 6,3 km/h (2 Bft)
04.08.2015 08:28 20,0 C 17,2 C 87 % 3 lf 1009,7 hPa 0,0 l/m 0 min 0 min 31 W/m 8,4 km/h (2 Bft)
04.08.2015 08:30 20,0 C 17,2 C 87 % 3 lf 1009,7 hPa 0,0 l/m 0 min 0 min 33 W/m 4,2 km/h (1 Bft)
04.08.2015 08:32 20,0 C 17,2 C 88 % 15 lf 1009,7 hPa 0,0 l/m 0 min 2 min 35 W/m 6,3 km/h (2 Bft)
04.08.2015 08:34 20,1 C 17,8 C 88 % 15 lf 1009,7 hPa 0,0 l/m 0 min 2 min 35 W/m 6,3 km/h (2 Bft)
04.08.2015 08:36 20,1 C 17,2 C 88 % 15 lf 1009,6 hPa 0,0 l/m 0 min 2 min 35 W/m 6,3 km/h (2 Bft)
04.08.2015 08:38 20,1 C 17,8 C 88 % 15 lf 1009,7 hPa 0,0 l/m 0 min 2 min 37 W/m 10,5 km/h (2 Bft)
04.08.2015 08:40 20,1 C 17,8 C 88 % 15 lf 1009,5 hPa 0,0 l/m 0 min 2 min 40 W/m 4,2 km/h (1 Bft)
04.08.2015 08:42 20,1 C 17,8 C 88 % 15 lf 1009,5 hPa 0,0 l/m 0 min 2 min 44 W/m 4,2 km/h (1 Bft)
04.08.2015 08:44 20,1 C 17,8 C 88 % 15 lf 1009,4 hPa 0,0 l/m 0 min 2 min 47 W/m 6,3 km/h (2 Bft)
04.08.2015 08:46 20,1 C 17,8 C 88 % 15 lf 1009,4 hPa 0,0 l/m 0 min 2 min 49 W/m 6,3 km/h (2 Bft)
04.08.2015 08:48 20,1 C 17,2 C 88 % 15 lf 1009,4 hPa 0,0 l/m 0 min 2 min 47 W/m 10,5 km/h (2 Bft)
04.08.2015 08:50 20,1 C 17,8 C 88 % 15 lf 1009,4 hPa 0,0 l/m 0 min 0 min 47 W/m 8,4 km/h (2 Bft)
04.08.2015 08:52 20,1 C 17,8 C 88 % 15 lf 1009,4 hPa 0,0 l/m 0 min 0 min 46 W/m 12,6 km/h (3 Bft)
04.08.2015 08:54 20,1 C 17,2 C 88 % 15 lf 1009,4 hPa 0,0 l/m 0 min 2 min 42 W/m 8,4 km/h (2 Bft)
04.08.2015 08:56 20,1 C 17,2 C 88 % 15 lf 1009,4 hPa 0,0 l/m 0 min 0 min 40 W/m 8,4 km/h (2 Bft)
04.08.2015 08:58 20,1 C 17,2 C 88 % 15 lf 1009,3 hPa 0,0 l/m 0 min 0 min 44 W/m 10,5 km/h (2 Bft)
04.08.2015 09:00 20,1 C 17,8 C 88 % 15 lf 1009,4 hPa 0,0 l/m 0 min 0 min 47 W/m 6,3 km/h (2 Bft)
04.08.2015 09:02 20,1 C 17,8 C 88 % 15 lf 1009,4 hPa 0,0 l/m 0 min 0 min 49 W/m 14,6 km/h (3 Bft)
04.08.2015 09:04 20,1 C 17,8 C 88 % 15 lf 1009,5 hPa 0,0 l/m 0 min 0 min 46 W/m 10,5 km/h (2 Bft)
04.08.2015 09:06 20,1 C 17,2 C 88 % 15 lf 1009,6 hPa 0,0 l/m 0 min 0 min 40 W/m 14,6 km/h (3 Bft)
04.08.2015 09:08 20,1 C 17,2 C 88 % 15 lf 1009,6 hPa 0,0 l/m 0 min 2 min 36 W/m 18,8 km/h (3 Bft)
04.08.2015 09:10 20,1 C 17,2 C 88 % 15 lf 1009,7 hPa 0,0 l/m 0 min 2 min 33 W/m 16,7 km/h (3 Bft)
04.08.2015 09:12 20,1 C 17,2 C 87 % 15 lf 1009,7 hPa 0,0 l/m 0 min 2 min 33 W/m 12,6 km/h (3 Bft)
04.08.2015 09:14 20,1 C 17,2 C 87 % 15 lf 1009,7 hPa 0,0 l/m 0 min 2 min 35 W/m 12,6 km/h (3 Bft)
04.08.2015 09:16 20,1 C 17,2 C 87 % 15 lf 1009,7 hPa 0,0 l/m 0 min 2 min 38 W/m 10,5 km/h (2 Bft)
04.08.2015 09:18 20,1 C 17,2 C 87 % 15 lf 1009,7 hPa 0,0 l/m 0 min 2 min 43 W/m 18,8 km/h (3 Bft)
04.08.2015 09:20 20,1 C 17,2 C 86 % 15 lf 1009,8 hPa 0,0 l/m 0 min 2 min 50 W/m 14,6 km/h (3 Bft)
04.08.2015 09:22 20,2 C 17,2 C 86 % 15 lf 1009,8 hPa 0,0 l/m 0 min 2 min 56 W/m 16,7 km/h (3 Bft)
04.08.2015 09:24 20,2 C 17,2 C 85 % 15 lf 1009,8 hPa 0,0 l/m 0 min 2 min 59 W/m 20,9 km/h (4 Bft)
04.08.2015 09:26 20,2 C 17,2 C 85 % 15 lf 1009,8 hPa 0,0 l/m 0 min 2 min 58 W/m 20,9 km/h (4 Bft)
04.08.2015 09:28 20,3 C 17,2 C 85 % 15 lf 1009,8 hPa 0,0 l/m 0 min 2 min 56 W/m 23,0 km/h (4 Bft)
04.08.2015 09:30 20,3 C 16,7 C 84 % 15 lf 1009,8 hPa 0,0 l/m 0 min 2 min 58 W/m 23,0 km/h (4 Bft)
04.08.2015 09:32 20,4 C 17,2 C 84 % 15 lf 1009,9 hPa 0,0 l/m 0 min 2 min 58 W/m 23,0 km/h (4 Bft)
04.08.2015 09:34 20,4 C 17,2 C 83 % 15 lf 1009,9 hPa 0,0 l/m 0 min 2 min 59 W/m 23,0 km/h (4 Bft)
04.08.2015 09:36 20,4 C 17,2 C 83 % 15 lf 1009,9 hPa 0,0 l/m 0 min 2 min 55 W/m 16,7 km/h (3 Bft)
04.08.2015 09:38 20,5 C 17,2 C 83 % 15 lf 1010,0 hPa 0,0 l/m 0 min 2 min 50 W/m 23,0 km/h (4 Bft)
04.08.2015 09:40 20,6 C 17,2 C 82 % 15 lf 1010,1 hPa 0,0 l/m 0 min 2 min 48 W/m 25,1 km/h (4 Bft)
04.08.2015 09:42 20,6 C 17,2 C 82 % 15 lf 1010,2 hPa 0,0 l/m 0 min 2 min 51 W/m 25,1 km/h (4 Bft)
04.08.2015 09:44 20,7 C 17,2 C 82 % 15 lf 1010,2 hPa 0,0 l/m 0 min 2 min 58 W/m 18,8 km/h (3 Bft)
04.08.2015 09:46 20,7 C 17,2 C 81 % 15 lf 1010,2 hPa 0,0 l/m 0 min 2 min 64 W/m 20,9 km/h (4 Bft)
04.08.2015 09:48 20,7 C 17,2 C 81 % 14 lf 1010,2 hPa 0,0 l/m 0 min 2 min 69 W/m 18,8 km/h (3 Bft)
04.08.2015 09:50 20,8 C 17,2 C 81 % 14 lf 1010,3 hPa 0,0 l/m 0 min 2 min 70 W/m 14,6 km/h (3 Bft)
04.08.2015 09:52 20,8 C 17,2 C 82 % 4 lf 1010,2 hPa 0,0 l/m 0 min 2 min 73 W/m 20,9 km/h (4 Bft)
04.08.2015 09:54 20,8 C 17,2 C 81 % 15 lf 1010,3 hPa 0,0 l/m 0 min 2 min 76 W/m 25,1 km/h (4 Bft)
04.08.2015 09:56 20,9 C 17,2 C 81 % 15 lf 1010,3 hPa 0,0 l/m 0 min 2 min 72 W/m 23,0 km/h (4 Bft)
04.08.2015 09:58 20,9 C 17,2 C 81 % 15 lf 1010,4 hPa 0,0 l/m 0 min 2 min 67 W/m 23,0 km/h (4 Bft)
04.08.2015 10:00 20,9 C 16,7 C 81 % 15 lf 1010,4 hPa 0,0 l/m 0 min 2 min 68 W/m 23,0 km/h (4 Bft)
04.08.2015 10:02 20,9 C 16,7 C 81 % 15 lf 1010,5 hPa 0,2 l/m 0 min 2 min 74 W/m 27,2 km/h (4 Bft)
04.08.2015 10:04 20,9 C 17,2 C 81 % 15 lf 1010,5 hPa 0,0 l/m 0 min 2 min 83 W/m 20,9 km/h (4 Bft)
04.08.2015 10:06 20,9 C 17,2 C 82 % 15 lf 1010,6 hPa 0,0 l/m 0 min 2 min 92 W/m 23,0 km/h (4 Bft)
04.08.2015 10:08 20,8 C 17,2 C 82 % 15 lf 1010,6 hPa 0,0 l/m 0 min 2 min 91 W/m 20,9 km/h (4 Bft)
04.08.2015 10:10 20,8 C 16,7 C 82 % 15 lf 1010,6 hPa 0,0 l/m 0 min 2 min 84 W/m 27,2 km/h (4 Bft)
04.08.2015 10:12 20,7 C 16,7 C 83 % 15 lf 1010,7 hPa 0,0 l/m 0 min 2 min 77 W/m 23,0 km/h (4 Bft)
04.08.2015 10:14 20,7 C 16,7 C 83 % 15 lf 1010,7 hPa 0,0 l/m 0 min 2 min 77 W/m 27,2 km/h (4 Bft)
04.08.2015 10:16 20,7 C 17,2 C 83 % 15 lf 1010,6 hPa 0,0 l/m 0 min 2 min 76 W/m 20,9 km/h (4 Bft)
04.08.2015 10:18 20,6 C 17,2 C 83 % 15 lf 1010,6 hPa 0,0 l/m 0 min 2 min 70 W/m 14,6 km/h (3 Bft)
04.08.2015 10:20 20,6 C 17,2 C 84 % 15 lf 1010,6 hPa 0,0 l/m 0 min 2 min 63 W/m 16,7 km/h (3 Bft)
04.08.2015 10:22 20,6 C 16,7 C 84 % 15 lf 1010,6 hPa 0,0 l/m 0 min 2 min 57 W/m 18,8 km/h (3 Bft)
04.08.2015 10:24 20,5 C 16,7 C 84 % 15 lf 1010,6 hPa 0,0 l/m 0 min 2 min 55 W/m 18,8 km/h (3 Bft)
04.08.2015 10:26 20,4 C 16,7 C 84 % 15 lf 1010,5 hPa 0,0 l/m 0 min 2 min 59 W/m 16,7 km/h (3 Bft)
04.08.2015 10:28 20,4 C 17,2 C 84 % 15 lf 1010,3 hPa 0,0 l/m 0 min 2 min 65 W/m 18,8 km/h (3 Bft)
04.08.2015 10:30 20,4 C 17,2 C 85 % 15 lf 1010,2 hPa 0,0 l/m 0 min 2 min 69 W/m 10,5 km/h (2 Bft)
04.08.2015 10:32 20,4 C 17,2 C 85 % 15 lf 1010,3 hPa 0,0 l/m 0 min 2 min 69 W/m 10,5 km/h (2 Bft)
04.08.2015 10:34 20,3 C 17,2 C 85 % 15 lf 1010,4 hPa 0,0 l/m 0 min 2 min 65 W/m 10,5 km/h (2 Bft)
04.08.2015 10:36 20,3 C 17,2 C 85 % 15 lf 1010,6 hPa 0,0 l/m 0 min 2 min 63 W/m 12,6 km/h (3 Bft)
04.08.2015 10:38 20,3 C 17,2 C 86 % 15 lf 1010,9 hPa 0,0 l/m 0 min 2 min 63 W/m 8,4 km/h (2 Bft)
04.08.2015 10:40 20,2 C 17,2 C 86 % 15 lf 1011,0 hPa 0,0 l/m 0 min 2 min 63 W/m 12,6 km/h (3 Bft)
04.08.2015 10:42 20,2 C 17,2 C 86 % 15 lf 1011,0 hPa 0,2 l/m 0 min 2 min 61 W/m 10,5 km/h (2 Bft)
04.08.2015 10:44 20,2 C 17,2 C 86 % 15 lf 1011,1 hPa 0,0 l/m 0 min 2 min 58 W/m 14,6 km/h (3 Bft)
04.08.2015 10:46 20,2 C 17,2 C 86 % 15 lf 1011,1 hPa 0,0 l/m 0 min 2 min 58 W/m 6,3 km/h (2 Bft)
04.08.2015 10:48 20,2 C 17,2 C 87 % 15 lf 1011,2 hPa 0,0 l/m 0 min 2 min 56 W/m 10,5 km/h (2 Bft)
04.08.2015 10:50 20,1 C 17,2 C 87 % 15 lf 1011,3 hPa 0,0 l/m 0 min 2 min 53 W/m 10,5 km/h (2 Bft)
04.08.2015 10:52 20,1 C 17,2 C 87 % 15 lf 1011,3 hPa 0,0 l/m 0 min 2 min 51 W/m 12,6 km/h (3 Bft)
04.08.2015 10:54 20,1 C 17,2 C 87 % 15 lf 1011,4 hPa 0,0 l/m 0 min 2 min 52 W/m 16,7 km/h (3 Bft)
04.08.2015 10:56 20,0 C 17,2 C 87 % 15 lf 1011,5 hPa 0,0 l/m 0 min 2 min 55 W/m 14,6 km/h (3 Bft)
04.08.2015 10:58 20,0 C 17,2 C 87 % 15 lf 1011,6 hPa 0,2 l/m 0 min 2 min 58 W/m 6,3 km/h (2 Bft)
04.08.2015 11:00 19,9 C 17,2 C 88 % 15 lf 1011,6 hPa 0,0 l/m 0 min 2 min 59 W/m 4,2 km/h (1 Bft)
04.08.2015 11:02 19,9 C 17,2 C 88 % 15 lf 1011,6 hPa 0,0 l/m 0 min 2 min 57 W/m 10,5 km/h (2 Bft)
04.08.2015 11:04 19,9 C 17,2 C 88 % 15 lf 1011,6 hPa 0,2 l/m 0 min 2 min 56 W/m 12,6 km/h (3 Bft)
04.08.2015 11:06 19,9 C 17,2 C 88 % 15 lf 1011,8 hPa 0,0 l/m 0 min 2 min 53 W/m 18,8 km/h (3 Bft)
04.08.2015 11:08 19,9 C 17,2 C 88 % 15 lf 1012,0 hPa 0,0 l/m 0 min 2 min 52 W/m 14,6 km/h (3 Bft)
04.08.2015 11:10 19,8 C 17,2 C 88 % 15 lf 1012,0 hPa 0,0 l/m 0 min 2 min 50 W/m 12,6 km/h (3 Bft)
04.08.2015 11:12 19,8 C 17,2 C 89 % 15 lf 1012,2 hPa 0,2 l/m 0 min 2 min 49 W/m 8,4 km/h (2 Bft)
04.08.2015 11:14 19,7 C 16,7 C 89 % 15 lf 1012,2 hPa 0,0 l/m 0 min 2 min 47 W/m 10,5 km/h (2 Bft)
04.08.2015 11:16 19,7 C 17,2 C 89 % 15 lf 1012,3 hPa 0,2 l/m 0 min 2 min 46 W/m 16,7 km/h (3 Bft)
04.08.2015 11:18 19,7 C 17,2 C 89 % 15 lf 1012,4 hPa 0,0 l/m 0 min 2 min 46 W/m 14,6 km/h (3 Bft)
04.08.2015 11:20 19,7 C 17,2 C 90 % 15 lf 1012,3 hPa 0,2 l/m 0 min 2 min 46 W/m 10,5 km/h (2 Bft)
04.08.2015 11:22 19,6 C 17,2 C 90 % 15 lf 1012,4 hPa 0,0 l/m 0 min 2 min 47 W/m 8,4 km/h (2 Bft)
04.08.2015 11:24 19,6 C 17,2 C 90 % 15 lf 1012,4 hPa 0,2 l/m 0 min 2 min 50 W/m 12,6 km/h (3 Bft)
04.08.2015 11:26 19,6 C 17,2 C 90 % 15 lf 1012,5 hPa 0,0 l/m 0 min 2 min 54 W/m 12,6 km/h (3 Bft)
04.08.2015 11:28 19,5 C 17,2 C 90 % 15 lf 1012,4 hPa 0,2 l/m 0 min 2 min 57 W/m 8,4 km/h (2 Bft)
04.08.2015 11:30 19,5 C 17,2 C 90 % 15 lf 1012,4 hPa 0,2 l/m 0 min 2 min 58 W/m 8,4 km/h (2 Bft)
04.08.2015 11:32 19,5 C 17,2 C 90 % 15 lf 1012,3 hPa 0,0 l/m 0 min 2 min 64 W/m 12,6 km/h (3 Bft)
04.08.2015 11:34 19,4 C 16,7 C 90 % 15 lf 1012,3 hPa 0,2 l/m 0 min 2 min 70 W/m 12,6 km/h (3 Bft)
04.08.2015 11:36 19,4 C 17,2 C 91 % 15 lf 1012,3 hPa 0,2 l/m 0 min 2 min 76 W/m 14,6 km/h (3 Bft)
04.08.2015 11:38 19,3 C 17,2 C 91 % 15 lf 1012,4 hPa 0,0 l/m 0 min 2 min 81 W/m 10,5 km/h (2 Bft)
04.08.2015 11:40 19,3 C 17,2 C 91 % 15 lf 1012,4 hPa 0,0 l/m 0 min 2 min 79 W/m 10,5 km/h (2 Bft)
04.08.2015 11:42 19,3 C 17,2 C 91 % 15 lf 1012,5 hPa 0,0 l/m 0 min 2 min 77 W/m 8,4 km/h (2 Bft)
04.08.2015 11:44 19,3 C 17,2 C 91 % 15 lf 1012,4 hPa 0,0 l/m 0 min 2 min 79 W/m 14,6 km/h (3 Bft)
04.08.2015 11:46 19,2 C 17,2 C 92 % 15 lf 1012,4 hPa 0,0 l/m 0 min 2 min 67 W/m 14,6 km/h (3 Bft)
04.08.2015 11:48 19,2 C 17,2 C 92 % 15 lf 1012,5 hPa 0,0 l/m 0 min 2 min 73 W/m 12,6 km/h (3 Bft)
04.08.2015 11:50 19,2 C 17,2 C 92 % 15 lf 1012,5 hPa 0,0 l/m 0 min 2 min 73 W/m 10,5 km/h (2 Bft)
04.08.2015 11:52 19,2 C 17,2 C 92 % 15 lf 1012,5 hPa 0,0 l/m 0 min 2 min 67 W/m 10,5 km/h (2 Bft)
04.08.2015 11:54 19,1 C 17,2 C 92 % 15 lf 1012,4 hPa 0,0 l/m 0 min 2 min 73 W/m 10,5 km/h (2 Bft)
04.08.2015 11:56 19,1 C 17,2 C 92 % 15 lf 1012,4 hPa 0,2 l/m 0 min 2 min 80 W/m 8,4 km/h (2 Bft)
04.08.2015 11:58 19,1 C 17,2 C 92 % 15 lf 1012,4 hPa 0,0 l/m 0 min 2 min 88 W/m 6,3 km/h (2 Bft)
04.08.2015 12:00 19,1 C 17,2 C 92 % 15 lf 1012,4 hPa 0,0 l/m 0 min 2 min 94 W/m 4,2 km/h (1 Bft)
04.08.2015 12:02 19,1 C 17,2 C 92 % 15 lf 1012,5 hPa 0,0 l/m 0 min 2 min 99 W/m 8,4 km/h (2 Bft)
04.08.2015 12:05 19,1 C 17,2 C 93 % 15 lf 1012,3 hPa 0,0 l/m 0 min 2 min 116 W/m 8,4 km/h (2 Bft)
04.08.2015 12:06 19,1 C 17,2 C 93 % 15 lf 1012,3 hPa 0,0 l/m 0 min 1 min 111 W/m 8,4 km/h (2 Bft)
04.08.2015 12:08 19,1 C 17,2 C 93 % 15 lf 1012,3 hPa 0,0 l/m 0 min 2 min 115 W/m 12,6 km/h (3 Bft)
04.08.2015 12:10 19,1 C 17,2 C 93 % 15 lf 1012,4 hPa 0,0 l/m 0 min 2 min 110 W/m 8,4 km/h (2 Bft)
04.08.2015 12:12 19,1 C 17,2 C 93 % 15 lf 1012,4 hPa 0,0 l/m 0 min 0 min 105 W/m 10,5 km/h (2 Bft)
04.08.2015 12:14 19,1 C 17,2 C 93 % 15 lf 1012,4 hPa 0,0 l/m 0 min 0 min 101 W/m 10,5 km/h (2 Bft)
04.08.2015 12:16 19,1 C 17,2 C 93 % 15 lf 1012,6 hPa 0,0 l/m 0 min 0 min 89 W/m 8,4 km/h (2 Bft)
04.08.2015 12:18 19,1 C 17,2 C 93 % 15 lf 1012,6 hPa 0,0 l/m 0 min 0 min 82 W/m 6,3 km/h (2 Bft)
04.08.2015 12:20 19,1 C 17,2 C 93 % 15 lf 1012,6 hPa 0,0 l/m 0 min 0 min 72 W/m 6,3 km/h (2 Bft)
04.08.2015 12:22 19,1 C 17,2 C 93 % 15 lf 1012,6 hPa 0,0 l/m 0 min 2 min 85 W/m 6,3 km/h (2 Bft)
04.08.2015 12:24 19,1 C 17,2 C 94 % 15 lf 1012,6 hPa 0,0 l/m 0 min 2 min 73 W/m 8,4 km/h (2 Bft)
04.08.2015 12:26 19,1 C 17,2 C 94 % 15 lf 1012,5 hPa 0,0 l/m 0 min 2 min 68 W/m 6,3 km/h (2 Bft)
04.08.2015 12:28 19,1 C 17,2 C 94 % 15 lf 1012,6 hPa 0,2 l/m 0 min 2 min 69 W/m 6,3 km/h (2 Bft)
04.08.2015 12:30 19,1 C 17,8 C 94 % 15 lf 1012,6 hPa 0,0 l/m 0 min 2 min 89 W/m 6,3 km/h (2 Bft)
04.08.2015 12:32 19,1 C 17,8 C 94 % 15 lf 1012,6 hPa 0,0 l/m 0 min 2 min 117 W/m 10,5 km/h (2 Bft)
04.08.2015 12:34 19,1 C 17,8 C 94 % 15 lf 1012,6 hPa 0,0 l/m 0 min 2 min 110 W/m 8,4 km/h (2 Bft)
04.08.2015 12:36 19,1 C 17,8 C 94 % 15 lf 1012,6 hPa 0,0 l/m 0 min 2 min 108 W/m 6,3 km/h (2 Bft)
04.08.2015 12:38 19,1 C 17,8 C 94 % 15 lf 1012,6 hPa 0,0 l/m 0 min 2 min 97 W/m 12,6 km/h (3 Bft)
04.08.2015 12:40 19,1 C 17,8 C 94 % 15 lf 1012,6 hPa 0,0 l/m 0 min 2 min 91 W/m 8,4 km/h (2 Bft)
04.08.2015 12:42 19,2 C 17,8 C 94 % 15 lf 1012,6 hPa 0,2 l/m 0 min 2 min 87 W/m 8,4 km/h (2 Bft)
04.08.2015 12:44 19,2 C 17,8 C 94 % 15 lf 1012,5 hPa 0,0 l/m 0 min 2 min 112 W/m 6,3 km/h (2 Bft)
04.08.2015 12:46 19,2 C 17,8 C 94 % 15 lf 1012,6 hPa 0,0 l/m 0 min 2 min 98 W/m 10,5 km/h (2 Bft)
04.08.2015 12:48 19,2 C 17,8 C 94 % 15 lf 1012,6 hPa 0,2 l/m 0 min 2 min 70 W/m 6,3 km/h (2 Bft)
04.08.2015 12:50 19,2 C 17,8 C 94 % 15 lf 1012,6 hPa 0,0 l/m 0 min 2 min 71 W/m 8,4 km/h (2 Bft)
04.08.2015 12:52 19,2 C 17,2 C 94 % 15 lf 1012,7 hPa 0,0 l/m 0 min 2 min 45 W/m 10,5 km/h (2 Bft)
04.08.2015 12:54 19,2 C 17,2 C 94 % 15 lf 1012,7 hPa 0,0 l/m 0 min 2 min 33 W/m 8,4 km/h (2 Bft)
04.08.2015 12:56 19,2 C 17,2 C 94 % 15 lf 1012,7 hPa 0,2 l/m 0 min 2 min 30 W/m 10,5 km/h (2 Bft)
04.08.2015 12:58 19,2 C 17,2 C 94 % 15 lf 1012,7 hPa 0,0 l/m 0 min 2 min 36 W/m 8,4 km/h (2 Bft)
04.08.2015 13:00 19,2 C 17,2 C 94 % 15 lf 1012,7 hPa 0,4 l/m 0 min 2 min 32 W/m 8,4 km/h (2 Bft)
04.08.2015 13:02 19,2 C 17,2 C 94 % 15 lf 1012,7 hPa 0,2 l/m 0 min 2 min 49 W/m 4,2 km/h (1 Bft)
04.08.2015 13:04 19,2 C 17,8 C 94 % 15 lf 1012,6 hPa 0,0 l/m 0 min 2 min 97 W/m 6,3 km/h (2 Bft)
04.08.2015 13:06 19,2 C 17,8 C 95 % 15 lf 1012,6 hPa 0,0 l/m 0 min 2 min 122 W/m 6,3 km/h (2 Bft)
04.08.2015 13:08 19,2 C 17,8 C 95 % 15 lf 1012,6 hPa 0,0 l/m 0 min 2 min 120 W/m 6,3 km/h (2 Bft)
04.08.2015 13:10 19,2 C 17,8 C 95 % 15 lf 1012,7 hPa 0,0 l/m 0 min 2 min 95 W/m 6,3 km/h (2 Bft)
04.08.2015 13:12 19,2 C 17,8 C 95 % 15 lf 1012,6 hPa 0,0 l/m 0 min 2 min 100 W/m 6,3 km/h (2 Bft)
04.08.2015 13:14 19,2 C 17,8 C 95 % 15 lf 1012,6 hPa 0,0 l/m 0 min 2 min 100 W/m 6,3 km/h (2 Bft)
04.08.2015 13:16 19,2 C 17,8 C 95 % 15 lf 1012,6 hPa 0,0 l/m 0 min 2 min 114 W/m 6,3 km/h (2 Bft)
04.08.2015 13:18 19,3 C 17,8 C 95 % 15 lf 1012,6 hPa 0,0 l/m 0 min 2 min 135 W/m 4,2 km/h (1 Bft)
04.08.2015 13:20 19,3 C 17,8 C 95 % 15 lf 1012,6 hPa 0,0 l/m 0 min 2 min 127 W/m 6,3 km/h (2 Bft)
04.08.2015 13:22 19,3 C 17,8 C 95 % 15 lf 1012,6 hPa 0,0 l/m 0 min 2 min 117 W/m 6,3 km/h (2 Bft)
04.08.2015 13:24 19,3 C 18,3 C 95 % 15 lf 1012,6 hPa 0,2 l/m 0 min 2 min 128 W/m 4,2 km/h (1 Bft)
04.08.2015 13:26 19,4 C 18,3 C 95 % 15 lf 1012,6 hPa 0,0 l/m 0 min 0 min 150 W/m 4,2 km/h (1 Bft)
04.08.2015 13:28 19,4 C 18,3 C 95 % 15 lf 1012,6 hPa 0,0 l/m 0 min 0 min 163 W/m 4,2 km/h (1 Bft)
04.08.2015 13:30 19,4 C 18,3 C 95 % 15 lf 1012,6 hPa 0,0 l/m 0 min 0 min 140 W/m 6,3 km/h (2 Bft)
04.08.2015 13:32 19,5 C 17,8 C 95 % 15 lf 1012,7 hPa 0,0 l/m 0 min 0 min 111 W/m 8,4 km/h (2 Bft)
04.08.2015 13:34 19,5 C 17,8 C 95 % 15 lf 1012,7 hPa 0,0 l/m 0 min 0 min 105 W/m 8,4 km/h (2 Bft)
04.08.2015 13:36 19,5 C 17,8 C 95 % 15 lf 1012,7 hPa 0,0 l/m 0 min 0 min 99 W/m 8,4 km/h (2 Bft)
04.08.2015 13:38 19,5 C 17,8 C 95 % 15 lf 1012,7 hPa 0,0 l/m 0 min 0 min 90 W/m 8,4 km/h (2 Bft)
04.08.2015 13:40 19,5 C 17,8 C 95 % 15 lf 1012,8 hPa 0,0 l/m 0 min 0 min 89 W/m 6,3 km/h (2 Bft)
04.08.2015 13:42 19,5 C 17,8 C 95 % 15 lf 1012,8 hPa 0,0 l/m 0 min 2 min 64 W/m 4,2 km/h (1 Bft)
04.08.2015 13:44 19,5 C 17,8 C 95 % 15 lf 1012,8 hPa 0,0 l/m 0 min 2 min 48 W/m 4,2 km/h (1 Bft)
04.08.2015 13:46 19,5 C 17,8 C 95 % 15 lf 1012,8 hPa 0,0 l/m 0 min 2 min 48 W/m 4,2 km/h (1 Bft)
04.08.2015 13:48 19,5 C 17,8 C 95 % 15 lf 1012,8 hPa 0,2 l/m 0 min 2 min 52 W/m 8,4 km/h (2 Bft)
04.08.2015 13:50 19,5 C 17,8 C 95 % 15 lf 1012,8 hPa 0,0 l/m 0 min 2 min 69 W/m 8,4 km/h (2 Bft)
04.08.2015 13:52 19,5 C 17,8 C 95 % 15 lf 1012,8 hPa 0,0 l/m 0 min 2 min 60 W/m 6,3 km/h (2 Bft)
04.08.2015 13:54 19,5 C 17,8 C 95 % 15 lf 1012,8 hPa 0,0 l/m 0 min 2 min 62 W/m 6,3 km/h (2 Bft)
04.08.2015 13:56 19,5 C 17,8 C 95 % 15 lf 1012,8 hPa 0,0 l/m 0 min 2 min 61 W/m 6,3 km/h (2 Bft)
04.08.2015 13:58 19,4 C 17,8 C 95 % 15 lf 1012,9 hPa 0,0 l/m 0 min 2 min 44 W/m 8,4 km/h (2 Bft)
04.08.2015 14:00 19,4 C 17,8 C 95 % 15 lf 1012,9 hPa 0,0 l/m 0 min 2 min 38 W/m 8,4 km/h (2 Bft)
04.08.2015 14:02 19,4 C 17,8 C 95 % 15 lf 1012,9 hPa 0,0 l/m 0 min 2 min 31 W/m 10,5 km/h (2 Bft)
04.08.2015 14:04 19,4 C 17,8 C 95 % 15 lf 1012,9 hPa 0,0 l/m 0 min 2 min 26 W/m 18,8 km/h (3 Bft)
04.08.2015 14:06 19,4 C 17,2 C 95 % 15 lf 1013,0 hPa 0,0 l/m 0 min 2 min 27 W/m 16,7 km/h (3 Bft)
04.08.2015 14:08 19,3 C 17,2 C 95 % 15 lf 1013,0 hPa 0,0 l/m 0 min 2 min 22 W/m 29,3 km/h (5 Bft)
04.08.2015 14:10 19,2 C 17,2 C 95 % 15 lf 1013,1 hPa 0,2 l/m 0 min 2 min 27 W/m 16,7 km/h (3 Bft)
04.08.2015 14:12 19,1 C 16,7 C 95 % 15 lf 1013,1 hPa 0,0 l/m 0 min 2 min 31 W/m 25,1 km/h (4 Bft)
04.08.2015 14:14 18,9 C 16,7 C 95 % 15 lf 1013,2 hPa 0,0 l/m 0 min 2 min 30 W/m 20,9 km/h (4 Bft)
04.08.2015 14:16 18,8 C 16,7 C 94 % 15 lf 1013,2 hPa 0,0 l/m 0 min 2 min 30 W/m 29,3 km/h (5 Bft)
04.08.2015 14:18 18,6 C 16,1 C 94 % 15 lf 1013,3 hPa 0,0 l/m 0 min 2 min 28 W/m 31,4 km/h (5 Bft)
04.08.2015 14:20 18,5 C 16,1 C 94 % 15 lf 1013,4 hPa 0,0 l/m 0 min 2 min 30 W/m 18,8 km/h (3 Bft)
04.08.2015 14:22 18,4 C 16,1 C 94 % 15 lf 1013,5 hPa 0,2 l/m 0 min 2 min 32 W/m 27,2 km/h (4 Bft)
04.08.2015 14:24 18,2 C 16,1 C 94 % 15 lf 1013,5 hPa 0,2 l/m 0 min 2 min 33 W/m 23,0 km/h (4 Bft)
04.08.2015 14:26 18,1 C 16,1 C 94 % 15 lf 1013,5 hPa 0,0 l/m 0 min 2 min 34 W/m 18,8 km/h (3 Bft)
04.08.2015 14:28 18,0 C 16,1 C 94 % 15 lf 1013,6 hPa 0,0 l/m 0 min 2 min 41 W/m 25,1 km/h (4 Bft)
04.08.2015 14:30 17,9 C 16,1 C 94 % 15 lf 1013,6 hPa 0,0 l/m 0 min 2 min 47 W/m 18,8 km/h (3 Bft)
04.08.2015 14:32 17,8 C 16,1 C 94 % 15 lf 1013,7 hPa 0,0 l/m 0 min 2 min 44 W/m 16,7 km/h (3 Bft)
04.08.2015 14:34 17,7 C 15,6 C 94 % 15 lf 1013,7 hPa 0,0 l/m 0 min 2 min 42 W/m 23,0 km/h (4 Bft)
04.08.2015 14:36 17,7 C 16,1 C 94 % 15 lf 1013,7 hPa 0,0 l/m 0 min 2 min 45 W/m 18,8 km/h (3 Bft)
04.08.2015 14:38 17,6 C 16,1 C 94 % 15 lf 1013,8 hPa 0,0 l/m 0 min 0 min 52 W/m 18,8 km/h (3 Bft)
04.08.2015 14:40 17,6 C 16,1 C 94 % 15 lf 1013,8 hPa 0,0 l/m 0 min 2 min 59 W/m 14,6 km/h (3 Bft)
04.08.2015 14:42 17,5 C 16,1 C 94 % 15 lf 1013,8 hPa 0,0 l/m 0 min 2 min 62 W/m 18,8 km/h (3 Bft)
04.08.2015 14:44 17,5 C 15,6 C 94 % 15 lf 1013,9 hPa 0,0 l/m 0 min 2 min 55 W/m 16,7 km/h (3 Bft)
04.08.2015 14:46 17,4 C 16,1 C 94 % 15 lf 1014,0 hPa 0,2 l/m 0 min 2 min 51 W/m 20,9 km/h (4 Bft)
04.08.2015 14:48 17,4 C 16,1 C 94 % 15 lf 1014,0 hPa 0,0 l/m 0 min 2 min 55 W/m 23,0 km/h (4 Bft)
04.08.2015 14:50 17,4 C 16,1 C 95 % 15 lf 1014,0 hPa 0,0 l/m 0 min 2 min 59 W/m 20,9 km/h (4 Bft)
04.08.2015 14:52 17,4 C 16,1 C 94 % 15 lf 1013,9 hPa 0,0 l/m 0 min 2 min 63 W/m 10,5 km/h (2 Bft)
04.08.2015 14:54 17,4 C 16,1 C 95 % 15 lf 1014,0 hPa 0,2 l/m 0 min 2 min 56 W/m 14,6 km/h (3 Bft)
04.08.2015 14:56 17,4 C 16,1 C 95 % 15 lf 1014,1 hPa 0,2 l/m 0 min 2 min 48 W/m 12,6 km/h (3 Bft)
04.08.2015 14:58 17,4 C 16,1 C 95 % 15 lf 1014,1 hPa 0,0 l/m 0 min 2 min 38 W/m 12,6 km/h (3 Bft)
04.08.2015 15:00 17,4 C 16,1 C 95 % 15 lf 1014,1 hPa 0,2 l/m 0 min 2 min 49 W/m 14,6 km/h (3 Bft)
04.08.2015 15:02 17,4 C 16,1 C 95 % 15 lf 1014,1 hPa 0,0 l/m 0 min 2 min 52 W/m 10,5 km/h (2 Bft)
04.08.2015 15:04 17,4 C 16,1 C 95 % 15 lf 1014,2 hPa 0,0 l/m 0 min 2 min 64 W/m 16,7 km/h (3 Bft)
04.08.2015 15:06 17,4 C 16,1 C 95 % 15 lf 1014,1 hPa 0,0 l/m 0 min 2 min 57 W/m 20,9 km/h (4 Bft)
04.08.2015 15:08 17,3 C 15,6 C 95 % 15 lf 1014,2 hPa 0,0 l/m 0 min 2 min 80 W/m 25,1 km/h (4 Bft)
04.08.2015 15:10 17,3 C 16,1 C 95 % 15 lf 1014,2 hPa 0,0 l/m 0 min 0 min 140 W/m 14,6 km/h (3 Bft)
04.08.2015 15:12 17,2 C 16,1 C 95 % 15 lf 1014,3 hPa 0,0 l/m 0 min 0 min 130 W/m 18,8 km/h (3 Bft)
04.08.2015 15:14 17,2 C 16,1 C 95 % 15 lf 1014,2 hPa 0,0 l/m 0 min 0 min 130 W/m 18,8 km/h (3 Bft)
04.08.2015 15:16 17,2 C 16,1 C 95 % 15 lf 1014,2 hPa 0,0 l/m 0 min 0 min 171 W/m 16,7 km/h (3 Bft)
04.08.2015 15:18 17,2 C 16,1 C 95 % 15 lf 1014,2 hPa 0,0 l/m 0 min 0 min 171 W/m 12,6 km/h (3 Bft)
04.08.2015 15:20 17,3 C 16,1 C 96 % 15 lf 1014,3 hPa 0,0 l/m 0 min 0 min 122 W/m 20,9 km/h (4 Bft)
04.08.2015 15:22 17,2 C 15,6 C 95 % 15 lf 1014,4 hPa 0,2 l/m 0 min 0 min 106 W/m 25,1 km/h (4 Bft)
04.08.2015 15:24 17,1 C 15,6 C 95 % 15 lf 1014,4 hPa 0,0 l/m 0 min 0 min 115 W/m 20,9 km/h (4 Bft)
04.08.2015 15:26 17,0 C 15,6 C 95 % 15 lf 1014,4 hPa 0,0 l/m 0 min 0 min 108 W/m 18,8 km/h (3 Bft)
04.08.2015 15:28 16,9 C 15,0 C 95 % 15 lf 1014,4 hPa 0,0 l/m 0 min 0 min 101 W/m 16,7 km/h (3 Bft)
04.08.2015 15:30 16,9 C 15,0 C 95 % 15 lf 1014,4 hPa 0,0 l/m 0 min 0 min 99 W/m 18,8 km/h (3 Bft)
04.08.2015 15:32 16,8 C 15,0 C 95 % 15 lf 1014,5 hPa 0,0 l/m 0 min 0 min 109 W/m 16,7 km/h (3 Bft)
04.08.2015 15:34 16,8 C 15,6 C 95 % 15 lf 1014,5 hPa 0,0 l/m 0 min 2 min 123 W/m 18,8 km/h (3 Bft)
04.08.2015 15:36 16,7 C 15,0 C 95 % 15 lf 1014,5 hPa 0,0 l/m 0 min 2 min 118 W/m 20,9 km/h (4 Bft)
04.08.2015 15:38 16,7 C 15,0 C 95 % 15 lf 1014,5 hPa 0,0 l/m 0 min 2 min 112 W/m 18,8 km/h (3 Bft)
04.08.2015 15:40 16,7 C 15,0 C 95 % 15 lf 1014,6 hPa 0,0 l/m 0 min 2 min 102 W/m 25,1 km/h (4 Bft)
04.08.2015 15:42 16,7 C 15,0 C 95 % 15 lf 1014,6 hPa 0,0 l/m 0 min 0 min 90 W/m 12,6 km/h (3 Bft)
04.08.2015 15:44 16,6 C 15,0 C 95 % 15 lf 1014,6 hPa 0,0 l/m 0 min 0 min 93 W/m 12,6 km/h (3 Bft)
04.08.2015 15:46 16,6 C 15,0 C 95 % 15 lf 1014,7 hPa 0,0 l/m 0 min 0 min 102 W/m 16,7 km/h (3 Bft)
04.08.2015 15:48 16,6 C 15,0 C 95 % 15 lf 1014,6 hPa 0,0 l/m 0 min 0 min 124 W/m 16,7 km/h (3 Bft)
04.08.2015 15:50 16,6 C 15,0 C 95 % 15 lf 1014,6 hPa 0,0 l/m 0 min 0 min 140 W/m 16,7 km/h (3 Bft)
04.08.2015 15:52 16,6 C 15,6 C 95 % 15 lf 1014,6 hPa 0,0 l/m 0 min 0 min 162 W/m 20,9 km/h (4 Bft)
04.08.2015 15:54 16,6 C 15,6 C 95 % 15 lf 1014,7 hPa 0,0 l/m 0 min 0 min 186 W/m 14,6 km/h (3 Bft)
04.08.2015 15:56 16,7 C 15,6 C 95 % 15 lf 1014,7 hPa 0,0 l/m 0 min 0 min 194 W/m 14,6 km/h (3 Bft)
04.08.2015 15:58 16,7 C 15,6 C 95 % 15 lf 1014,8 hPa 0,0 l/m 0 min 0 min 239 W/m 16,7 km/h (3 Bft)
04.08.2015 16:00 16,7 C 16,1 C 95 % 15 lf 1014,8 hPa 0,0 l/m 2 min 0 min 380 W/m 18,8 km/h (3 Bft)
04.08.2015 16:02 16,8 C 16,7 C 95 % 15 lf 1014,8 hPa 0,0 l/m 2 min 0 min 402 W/m 16,7 km/h (3 Bft)
04.08.2015 16:04 16,9 C 16,1 C 95 % 15 lf 1014,8 hPa 0,0 l/m 0 min 0 min 333 W/m 25,1 km/h (4 Bft)
04.08.2015 16:06 16,9 C 16,1 C 95 % 15 lf 1014,9 hPa 0,0 l/m 0 min 0 min 277 W/m 23,0 km/h (4 Bft)
04.08.2015 16:08 16,9 C 15,6 C 95 % 15 lf 1015,0 hPa 0,0 l/m 0 min 0 min 198 W/m 23,0 km/h (4 Bft)
04.08.2015 16:10 16,9 C 15,6 C 95 % 15 lf 1015,0 hPa 0,0 l/m 0 min 0 min 167 W/m 14,6 km/h (3 Bft)
04.08.2015 16:12 16,9 C 15,6 C 95 % 14 lf 1015,0 hPa 0,0 l/m 0 min 0 min 263 W/m 18,8 km/h (3 Bft)
04.08.2015 16:14 16,9 C 15,6 C 94 % 13 lf 1015,1 hPa 0,0 l/m 0 min 0 min 278 W/m 16,7 km/h (3 Bft)
04.08.2015 16:16 16,9 C 16,1 C 94 % 12 lf 1015,1 hPa 0,0 l/m 0 min 0 min 259 W/m 12,6 km/h (3 Bft)
04.08.2015 16:18 16,9 C 16,1 C 94 % 11 lf 1015,2 hPa 0,0 l/m 0 min 0 min 263 W/m 12,6 km/h (3 Bft)
04.08.2015 16:20 16,9 C 16,1 C 94 % 10 lf 1015,2 hPa 0,0 l/m 0 min 0 min 197 W/m 14,6 km/h (3 Bft)
04.08.2015 16:22 17,0 C 15,6 C 94 % 9 lf 1015,2 hPa 0,0 l/m 0 min 0 min 155 W/m 10,5 km/h (2 Bft)
04.08.2015 16:24 17,0 C 15,6 C 94 % 7 lf 1015,3 hPa 0,0 l/m 0 min 0 min 136 W/m 10,5 km/h (2 Bft)
04.08.2015 16:26 17,0 C 15,6 C 94 % 6 lf 1015,3 hPa 0,0 l/m 0 min 0 min 134 W/m 18,8 km/h (3 Bft)
04.08.2015 16:28 17,1 C 15,6 C 93 % 4 lf 1015,4 hPa 0,0 l/m 0 min 0 min 128 W/m 18,8 km/h (3 Bft)
04.08.2015 16:30 17,1 C 15,6 C 93 % 4 lf 1015,3 hPa 0,0 l/m 0 min 0 min 128 W/m 8,4 km/h (2 Bft)
04.08.2015 16:32 17,1 C 15,6 C 93 % 4 lf 1015,4 hPa 0,0 l/m 0 min 0 min 133 W/m 16,7 km/h (3 Bft)
04.08.2015 16:34 17,1 C 15,6 C 93 % 3 lf 1015,4 hPa 0,0 l/m 0 min 0 min 143 W/m 12,6 km/h (3 Bft)
04.08.2015 16:36 17,1 C 15,6 C 92 % 2 lf 1015,3 hPa 0,0 l/m 0 min 0 min 156 W/m 12,6 km/h (3 Bft)
04.08.2015 16:38 17,2 C 15,6 C 92 % 1 lf 1015,3 hPa 0,0 l/m 0 min 0 min 187 W/m 8,4 km/h (2 Bft)
04.08.2015 16:40 17,2 C 15,6 C 92 % 1 lf 1015,3 hPa 0,0 l/m 0 min 0 min 215 W/m 14,6 km/h (3 Bft)
04.08.2015 16:42 17,2 C 15,6 C 92 % 0 lf 1015,5 hPa 0,0 l/m 0 min 0 min 222 W/m 14,6 km/h (3 Bft)
04.08.2015 16:44 17,2 C 16,1 C 92 % 0 lf 1015,4 hPa 0,0 l/m 0 min 0 min 234 W/m 14,6 km/h (3 Bft)
04.08.2015 16:46 17,3 C 16,1 C 92 % 0 lf 1015,3 hPa 0,0 l/m 0 min 0 min 237 W/m 8,4 km/h (2 Bft)
04.08.2015 16:48 17,4 C 16,1 C 92 % 0 lf 1015,2 hPa 0,0 l/m 0 min 0 min 256 W/m 10,5 km/h (2 Bft)
04.08.2015 16:50 17,4 C 16,7 C 92 % 0 lf 1015,1 hPa 0,0 l/m 0 min 0 min 276 W/m 8,4 km/h (2 Bft)
04.08.2015 16:52 17,5 C 16,1 C 91 % 0 lf 1015,2 hPa 0,0 l/m 0 min 0 min 278 W/m 12,6 km/h (3 Bft)
04.08.2015 16:54 17,6 C 16,1 C 91 % 0 lf 1015,2 hPa 0,0 l/m 0 min 0 min 274 W/m 18,8 km/h (3 Bft)
04.08.2015 16:56 17,6 C 16,1 C 91 % 0 lf 1015,3 hPa 0,0 l/m 0 min 0 min 264 W/m 12,6 km/h (3 Bft)
04.08.2015 16:58 17,7 C 16,1 C 91 % 0 lf 1015,4 hPa 0,0 l/m 0 min 0 min 251 W/m 12,6 km/h (3 Bft)
04.08.2015 17:00 17,7 C 16,1 C 90 % 0 lf 1015,6 hPa 0,0 l/m 0 min 0 min 247 W/m 14,6 km/h (3 Bft)
04.08.2015 17:02 17,7 C 16,1 C 90 % 0 lf 1015,6 hPa 0,0 l/m 0 min 0 min 221 W/m 18,8 km/h (3 Bft)
04.08.2015 17:04 17,7 C 16,7 C 89 % 0 lf 1015,6 hPa 0,0 l/m 0 min 0 min 172 W/m 16,7 km/h (3 Bft)
04.08.2015 17:06 17,8 C 16,7 C 89 % 0 lf 1015,6 hPa 0,0 l/m 0 min 0 min 124 W/m 14,6 km/h (3 Bft)
04.08.2015 17:08 17,8 C 16,7 C 89 % 0 lf 1015,6 hPa 0,0 l/m 0 min 0 min 113 W/m 23,0 km/h (4 Bft)
04.08.2015 17:10 17,8 C 16,7 C 89 % 0 lf 1015,6 hPa 0,0 l/m 0 min 0 min 114 W/m 20,9 km/h (4 Bft)
04.08.2015 17:12 17,8 C 16,1 C 88 % 0 lf 1015,6 hPa 0,0 l/m 0 min 0 min 108 W/m 14,6 km/h (3 Bft)
04.08.2015 17:14 17,8 C 16,1 C 88 % 0 lf 1015,7 hPa 0,0 l/m 0 min 0 min 115 W/m 16,7 km/h (3 Bft)
04.08.2015 17:16 17,8 C 16,1 C 88 % 0 lf 1015,6 hPa 0,0 l/m 0 min 0 min 110 W/m 10,5 km/h (2 Bft)
04.08.2015 17:18 17,8 C 16,7 C 88 % 0 lf 1015,6 hPa 0,0 l/m 0 min 0 min 128 W/m 16,7 km/h (3 Bft)
04.08.2015 17:20 17,9 C 16,7 C 88 % 0 lf 1015,6 hPa 0,0 l/m 0 min 0 min 155 W/m 12,6 km/h (3 Bft)
04.08.2015 17:22 17,9 C 16,7 C 88 % 0 lf 1015,6 hPa 0,0 l/m 0 min 0 min 163 W/m 14,6 km/h (3 Bft)
04.08.2015 17:24 17,9 C 16,7 C 88 % 0 lf 1015,6 hPa 0,0 l/m 0 min 0 min 187 W/m 10,5 km/h (2 Bft)
04.08.2015 17:26 17,9 C 16,7 C 88 % 0 lf 1015,6 hPa 0,0 l/m 0 min 0 min 234 W/m 10,5 km/h (2 Bft)
04.08.2015 17:28 18,0 C 17,2 C 88 % 0 lf 1015,6 hPa 0,0 l/m 0 min 0 min 234 W/m 14,6 km/h (3 Bft)
04.08.2015 17:30 18,1 C 17,2 C 88 % 0 lf 1015,5 hPa 0,0 l/m 0 min 0 min 220 W/m 12,6 km/h (3 Bft)
04.08.2015 17:32 18,1 C 17,2 C 88 % 0 lf 1015,4 hPa 0,0 l/m 2 min 0 min 385 W/m 16,7 km/h (3 Bft)
04.08.2015 17:34 18,2 C 17,8 C 89 % 0 lf 1015,4 hPa 0,0 l/m 2 min 0 min 565 W/m 16,7 km/h (3 Bft)
04.08.2015 17:36 18,3 C 17,8 C 89 % 0 lf 1015,4 hPa 0,0 l/m 2 min 0 min 534 W/m 10,5 km/h (2 Bft)
04.08.2015 17:38 18,4 C 17,8 C 88 % 0 lf 1015,4 hPa 0,0 l/m 2 min 0 min 369 W/m 16,7 km/h (3 Bft)
04.08.2015 17:40 18,5 C 17,2 C 88 % 0 lf 1015,3 hPa 0,0 l/m 2 min 0 min 269 W/m 14,6 km/h (3 Bft)
04.08.2015 17:42 18,6 C 17,8 C 88 % 0 lf 1015,3 hPa 0,0 l/m 2 min 0 min 325 W/m 16,7 km/h (3 Bft)
04.08.2015 17:44 18,6 C 17,2 C 87 % 0 lf 1015,3 hPa 0,0 l/m 2 min 0 min 259 W/m 12,6 km/h (3 Bft)
04.08.2015 17:46 18,6 C 17,2 C 87 % 0 lf 1015,4 hPa 0,0 l/m 0 min 0 min 200 W/m 12,6 km/h (3 Bft)
04.08.2015 17:48 18,7 C 17,2 C 86 % 0 lf 1015,4 hPa 0,0 l/m 2 min 0 min 342 W/m 16,7 km/h (3 Bft)
04.08.2015 17:50 18,7 C 17,2 C 85 % 0 lf 1015,4 hPa 0,0 l/m 2 min 0 min 493 W/m 12,6 km/h (3 Bft)
04.08.2015 17:52 18,8 C 17,2 C 85 % 0 lf 1015,4 hPa 0,0 l/m 2 min 0 min 458 W/m 12,6 km/h (3 Bft)
04.08.2015 17:54 18,8 C 17,2 C 86 % 0 lf 1015,2 hPa 0,0 l/m 2 min 0 min 443 W/m 10,5 km/h (2 Bft)
04.08.2015 17:56 18,9 C 17,2 C 86 % 0 lf 1015,4 hPa 0,0 l/m 2 min 0 min 427 W/m 14,6 km/h (3 Bft)
04.08.2015 17:58 18,9 C 17,2 C 85 % 0 lf 1015,4 hPa 0,0 l/m 2 min 0 min 434 W/m 14,6 km/h (3 Bft)
04.08.2015 18:00 19,0 C 17,2 C 85 % 0 lf 1015,5 hPa 0,0 l/m 2 min 0 min 418 W/m 14,6 km/h (3 Bft)
04.08.2015 18:03 19,1 C 17,2 C 84 % 0 lf 1015,5 hPa 0,0 l/m 2 min 0 min 431 W/m 14,6 km/h (3 Bft)
04.08.2015 18:06 19,1 C 17,2 C 84 % 0 lf 1015,5 hPa 0,0 l/m 2 min 0 min 421 W/m 14,6 km/h (3 Bft)
04.08.2015 18:08 19,2 C 17,2 C 84 % 0 lf 1015,6 hPa 0,0 l/m 2 min 0 min 402 W/m 14,6 km/h (3 Bft)
04.08.2015 18:10 19,2 C 17,2 C 83 % 0 lf 1015,5 hPa 0,0 l/m 2 min 0 min 398 W/m 14,6 km/h (3 Bft)
04.08.2015 18:12 19,2 C 17,2 C 83 % 0 lf 1015,6 hPa 0,0 l/m 2 min 0 min 395 W/m 10,5 km/h (2 Bft)
04.08.2015 18:14 19,2 C 17,2 C 83 % 0 lf 1015,6 hPa 0,0 l/m 2 min 0 min 397 W/m 18,8 km/h (3 Bft)
04.08.2015 18:16 19,2 C 17,2 C 82 % 0 lf 1015,6 hPa 0,0 l/m 2 min 0 min 386 W/m 18,8 km/h (3 Bft)
04.08.2015 18:18 19,2 C 17,2 C 82 % 0 lf 1015,6 hPa 0,0 l/m 2 min 0 min 375 W/m 12,6 km/h (3 Bft)
04.08.2015 18:20 19,3 C 17,2 C 81 % 0 lf 1015,6 hPa 0,0 l/m 2 min 0 min 373 W/m 14,6 km/h (3 Bft)
04.08.2015 18:22 19,3 C 17,2 C 81 % 0 lf 1015,6 hPa 0,0 l/m 2 min 0 min 372 W/m 12,6 km/h (3 Bft)
04.08.2015 18:24 19,3 C 17,2 C 81 % 0 lf 1015,7 hPa 0,0 l/m 2 min 0 min 367 W/m 20,9 km/h (4 Bft)
04.08.2015 18:26 19,3 C 17,2 C 80 % 0 lf 1015,7 hPa 0,0 l/m 2 min 0 min 366 W/m 16,7 km/h (3 Bft)
04.08.2015 18:28 19,3 C 17,2 C 80 % 0 lf 1015,7 hPa 0,0 l/m 2 min 0 min 359 W/m 20,9 km/h (4 Bft)
04.08.2015 18:30 19,3 C 17,2 C 79 % 0 lf 1015,6 hPa 0,0 l/m 2 min 0 min 347 W/m 16,7 km/h (3 Bft)
04.08.2015 18:32 19,3 C 17,2 C 79 % 0 lf 1015,5 hPa 0,0 l/m 2 min 0 min 344 W/m 12,6 km/h (3 Bft)
04.08.2015 18:34 19,3 C 17,2 C 80 % 0 lf 1015,6 hPa 0,0 l/m 2 min 0 min 344 W/m 6,3 km/h (2 Bft)
04.08.2015 18:36 19,3 C 17,2 C 80 % 0 lf 1015,6 hPa 0,0 l/m 2 min 0 min 337 W/m 12,6 km/h (3 Bft)
04.08.2015 18:38 19,3 C 17,2 C 80 % 0 lf 1015,6 hPa 0,0 l/m 2 min 0 min 335 W/m 14,6 km/h (3 Bft)
04.08.2015 18:40 19,3 C 17,2 C 80 % 0 lf 1015,7 hPa 0,0 l/m 2 min 0 min 331 W/m 14,6 km/h (3 Bft)
04.08.2015 18:42 19,3 C 17,2 C 79 % 0 lf 1015,6 hPa 0,0 l/m 2 min 0 min 323 W/m 20,9 km/h (4 Bft)
04.08.2015 18:44 19,3 C 17,2 C 79 % 0 lf 1015,7 hPa 0,0 l/m 2 min 0 min 306 W/m 10,5 km/h (2 Bft)
04.08.2015 18:46 19,3 C 17,2 C 78 % 0 lf 1015,7 hPa 0,0 l/m 2 min 0 min 304 W/m 14,6 km/h (3 Bft)
04.08.2015 18:48 19,3 C 17,2 C 78 % 0 lf 1015,6 hPa 0,0 l/m 2 min 0 min 304 W/m 8,4 km/h (2 Bft)
04.08.2015 18:50 19,3 C 17,2 C 78 % 0 lf 1015,8 hPa 0,0 l/m 2 min 0 min 195 W/m 12,6 km/h (3 Bft)
04.08.2015 18:52 19,3 C 17,2 C 78 % 0 lf 1015,8 hPa 0,0 l/m 0 min 0 min 128 W/m 12,6 km/h (3 Bft)
04.08.2015 18:54 19,3 C 17,2 C 78 % 0 lf 1015,8 hPa 0,0 l/m 2 min 0 min 192 W/m 14,6 km/h (3 Bft)
04.08.2015 18:56 19,3 C 17,2 C 78 % 0 lf 1015,9 hPa 0,0 l/m 2 min 0 min 252 W/m 14,6 km/h (3 Bft)
04.08.2015 18:58 19,3 C 17,8 C 78 % 0 lf 1015,9 hPa 0,0 l/m 2 min 0 min 286 W/m 12,6 km/h (3 Bft)
04.08.2015 19:00 19,3 C 17,8 C 78 % 0 lf 1015,9 hPa 0,0 l/m 2 min 0 min 308 W/m 12,6 km/h (3 Bft)
04.08.2015 19:02 19,4 C 17,8 C 78 % 0 lf 1015,9 hPa 0,0 l/m 2 min 0 min 268 W/m 12,6 km/h (3 Bft)
04.08.2015 19:04 19,4 C 17,8 C 78 % 0 lf 1015,9 hPa 0,0 l/m 2 min 0 min 196 W/m 14,6 km/h (3 Bft)
04.08.2015 19:06 19,4 C 17,8 C 78 % 0 lf 1016,1 hPa 0,0 l/m 0 min 0 min 121 W/m 16,7 km/h (3 Bft)
04.08.2015 19:08 19,4 C 17,8 C 78 % 0 lf 1016,1 hPa 0,0 l/m 0 min 0 min 103 W/m 10,5 km/h (2 Bft)
04.08.2015 19:10 19,4 C 17,8 C 77 % 0 lf 1016,1 hPa 0,0 l/m 0 min 0 min 109 W/m 10,5 km/h (2 Bft)
04.08.2015 19:12 19,4 C 17,8 C 77 % 0 lf 1016,2 hPa 0,0 l/m 0 min 0 min 113 W/m 10,5 km/h (2 Bft)
04.08.2015 19:14 19,4 C 17,8 C 78 % 0 lf 1016,1 hPa 0,0 l/m 0 min 0 min 115 W/m 8,4 km/h (2 Bft)
04.08.2015 19:16 19,4 C 17,8 C 78 % 0 lf 1016,1 hPa 0,0 l/m 0 min 0 min 115 W/m 10,5 km/h (2 Bft)
04.08.2015 19:18 19,4 C 17,8 C 78 % 0 lf 1016,2 hPa 0,0 l/m 0 min 0 min 114 W/m 10,5 km/h (2 Bft)
04.08.2015 19:20 19,4 C 17,8 C 79 % 0 lf 1016,2 hPa 0,0 l/m 0 min 0 min 123 W/m 12,6 km/h (3 Bft)
04.08.2015 19:22 19,4 C 17,8 C 78 % 0 lf 1016,1 hPa 0,0 l/m 0 min 0 min 130 W/m 8,4 km/h (2 Bft)
04.08.2015 19:24 19,4 C 17,8 C 79 % 0 lf 1016,1 hPa 0,0 l/m 2 min 0 min 141 W/m 4,2 km/h (1 Bft)
04.08.2015 19:26 19,4 C 17,8 C 79 % 0 lf 1016,1 hPa 0,0 l/m 2 min 0 min 165 W/m 8,4 km/h (2 Bft)
04.08.2015 19:28 19,4 C 17,8 C 79 % 0 lf 1016,1 hPa 0,0 l/m 2 min 0 min 218 W/m 6,3 km/h (2 Bft)
04.08.2015 19:30 19,4 C 17,8 C 79 % 0 lf 1016,1 hPa 0,0 l/m 2 min 0 min 190 W/m 6,3 km/h (2 Bft)
04.08.2015 19:32 19,4 C 17,8 C 79 % 0 lf 1016,1 hPa 0,0 l/m 2 min 0 min 130 W/m 8,4 km/h (2 Bft)
04.08.2015 19:34 19,4 C 17,8 C 79 % 0 lf 1016,2 hPa 0,0 l/m 2 min 0 min 170 W/m 8,4 km/h (2 Bft)
04.08.2015 19:36 19,4 C 17,8 C 79 % 0 lf 1016,1 hPa 0,0 l/m 2 min 0 min 186 W/m 8,4 km/h (2 Bft)
04.08.2015 19:38 19,4 C 17,8 C 79 % 0 lf 1016,1 hPa 0,0 l/m 2 min 0 min 170 W/m 10,5 km/h (2 Bft)
04.08.2015 19:40 19,4 C 17,8 C 78 % 0 lf 1016,1 hPa 0,0 l/m 2 min 0 min 154 W/m 10,5 km/h (2 Bft)
04.08.2015 19:42 19,4 C 17,8 C 77 % 0 lf 1016,1 hPa 0,0 l/m 2 min 0 min 141 W/m 8,4 km/h (2 Bft)
04.08.2015 19:44 19,4 C 17,2 C 77 % 0 lf 1016,0 hPa 0,0 l/m 2 min 0 min 134 W/m 10,5 km/h (2 Bft)
04.08.2015 19:46 19,4 C 17,2 C 77 % 0 lf 1016,1 hPa 0,0 l/m 2 min 0 min 116 W/m 12,6 km/h (3 Bft)
04.08.2015 19:48 19,4 C 17,2 C 77 % 0 lf 1016,1 hPa 0,0 l/m 0 min 0 min 63 W/m 12,6 km/h (3 Bft)
04.08.2015 19:50 19,3 C 17,2 C 77 % 0 lf 1016,0 hPa 0,0 l/m 0 min 0 min 53 W/m 6,3 km/h (2 Bft)
04.08.2015 19:52 19,3 C 17,2 C 77 % 0 lf 1016,1 hPa 0,0 l/m 0 min 0 min 48 W/m 8,4 km/h (2 Bft)
04.08.2015 19:54 19,3 C 17,2 C 77 % 0 lf 1016,1 hPa 0,0 l/m 0 min 0 min 48 W/m 8,4 km/h (2 Bft)
04.08.2015 19:56 19,3 C 16,7 C 77 % 0 lf 1016,1 hPa 0,0 l/m 0 min 0 min 80 W/m 6,3 km/h (2 Bft)
04.08.2015 19:58 19,2 C 16,7 C 77 % 0 lf 1016,1 hPa 0,0 l/m 2 min 0 min 91 W/m 6,3 km/h (2 Bft)
04.08.2015 20:00 19,2 C 16,7 C 77 % 0 lf 1016,1 hPa 0,0 l/m 0 min 0 min 71 W/m 6,3 km/h (2 Bft)
04.08.2015 20:02 19,2 C 16,7 C 77 % 0 lf 1016,1 hPa 0,0 l/m 0 min 0 min 70 W/m 6,3 km/h (2 Bft)
04.08.2015 20:04 19,2 C 16,7 C 77 % 0 lf 1016,0 hPa 0,0 l/m 0 min 0 min 80 W/m 8,4 km/h (2 Bft)
04.08.2015 20:06 19,2 C 16,7 C 77 % 0 lf 1016,1 hPa 0,0 l/m 0 min 0 min 55 W/m 6,3 km/h (2 Bft)
04.08.2015 20:08 19,2 C 16,7 C 77 % 0 lf 1016,1 hPa 0,0 l/m 0 min 0 min 46 W/m 6,3 km/h (2 Bft)
04.08.2015 20:10 19,1 C 16,7 C 77 % 0 lf 1016,2 hPa 0,0 l/m 0 min 0 min 41 W/m 4,2 km/h (1 Bft)
04.08.2015 20:12 19,1 C 16,7 C 77 % 0 lf 1016,2 hPa 0,0 l/m 0 min 0 min 39 W/m 6,3 km/h (2 Bft)
04.08.2015 20:14 19,1 C 16,7 C 77 % 0 lf 1016,2 hPa 0,0 l/m 0 min 0 min 39 W/m 8,4 km/h (2 Bft)
04.08.2015 20:16 19,1 C 16,7 C 77 % 0 lf 1016,3 hPa 0,0 l/m 0 min 0 min 39 W/m 6,3 km/h (2 Bft)
04.08.2015 20:18 19,0 C 16,7 C 77 % 0 lf 1016,3 hPa 0,0 l/m 0 min 0 min 39 W/m 6,3 km/h (2 Bft)
04.08.2015 20:20 19,0 C 16,7 C 77 % 0 lf 1016,3 hPa 0,0 l/m 0 min 0 min 40 W/m 4,2 km/h (1 Bft)
04.08.2015 20:22 18,9 C 16,7 C 77 % 0 lf 1016,3 hPa 0,0 l/m 0 min 0 min 39 W/m 4,2 km/h (1 Bft)
04.08.2015 20:24 18,9 C 16,1 C 78 % 0 lf 1016,4 hPa 0,0 l/m 0 min 0 min 35 W/m 6,3 km/h (2 Bft)
04.08.2015 20:26 18,9 C 16,7 C 78 % 0 lf 1016,4 hPa 0,0 l/m 0 min 0 min 31 W/m 6,3 km/h (2 Bft)
04.08.2015 20:28 18,9 C 16,1 C 78 % 0 lf 1016,4 hPa 0,0 l/m 0 min 0 min 28 W/m 6,3 km/h (2 Bft)
04.08.2015 20:30 18,8 C 16,1 C 78 % 0 lf 1016,4 hPa 0,0 l/m 0 min 0 min 27 W/m 4,2 km/h (1 Bft)
04.08.2015 20:32 18,8 C 16,1 C 78 % 0 lf 1016,5 hPa 0,0 l/m 0 min 0 min 28 W/m 6,3 km/h (2 Bft)
04.08.2015 20:34 18,8 C 16,1 C 78 % 0 lf 1016,5 hPa 0,0 l/m 0 min 0 min 31 W/m 6,3 km/h (2 Bft)
04.08.2015 20:36 18,8 C 16,1 C 78 % 0 lf 1016,6 hPa 0,0 l/m 0 min 0 min 33 W/m 4,2 km/h (1 Bft)
04.08.2015 20:38 18,7 C 16,1 C 79 % 0 lf 1016,7 hPa 0,0 l/m 0 min 0 min 33 W/m 4,2 km/h (1 Bft)
04.08.2015 20:40 18,7 C 16,1 C 79 % 0 lf 1016,6 hPa 0,0 l/m 0 min 0 min 34 W/m 4,2 km/h (1 Bft)
04.08.2015 20:42 18,7 C 16,1 C 79 % 0 lf 1016,5 hPa 0,0 l/m 2 min 0 min 36 W/m 2,1 km/h (1 Bft)
04.08.2015 20:44 18,7 C 16,1 C 79 % 0 lf 1016,4 hPa 0,0 l/m 2 min 0 min 35 W/m 4,2 km/h (1 Bft)
04.08.2015 20:46 18,7 C 16,1 C 79 % 0 lf 1016,5 hPa 0,0 l/m 2 min 0 min 33 W/m 4,2 km/h (1 Bft)
04.08.2015 20:48 18,6 C 16,1 C 79 % 0 lf 1016,5 hPa 0,0 l/m 2 min 0 min 32 W/m 4,2 km/h (1 Bft)
04.08.2015 20:50 18,6 C 16,1 C 79 % 0 lf 1016,5 hPa 0,0 l/m 2 min 0 min 27 W/m 4,2 km/h (1 Bft)
04.08.2015 20:52 18,6 C 16,1 C 80 % 0 lf 1016,5 hPa 0,0 l/m 2 min 0 min 26 W/m 4,2 km/h (1 Bft)
04.08.2015 20:54 18,6 C 16,1 C 80 % 0 lf 1016,5 hPa 0,0 l/m 2 min 0 min 25 W/m 6,3 km/h (2 Bft)
04.08.2015 20:56 18,5 C 16,1 C 80 % 0 lf 1016,5 hPa 0,0 l/m 2 min 0 min 24 W/m 6,3 km/h (2 Bft)
04.08.2015 20:58 18,5 C 16,1 C 80 % 0 lf 1016,5 hPa 0,0 l/m 2 min 0 min 19 W/m 4,2 km/h (1 Bft)
04.08.2015 21:00 18,4 C 15,6 C 81 % 0 lf 1016,6 hPa 0,0 l/m 0 min 0 min 14 W/m 4,2 km/h (1 Bft)
04.08.2015 21:02 18,4 C 15,6 C 81 % 0 lf 1016,6 hPa 0,0 l/m 0 min 0 min 11 W/m 6,3 km/h (2 Bft)
04.08.2015 21:04 18,4 C 15,6 C 81 % 0 lf 1016,6 hPa 0,0 l/m 0 min 0 min 9 W/m 6,3 km/h (2 Bft)
04.08.2015 21:06 18,4 C 15,6 C 81 % 0 lf 1016,7 hPa 0,0 l/m 0 min 0 min 9 W/m 6,3 km/h (2 Bft)
04.08.2015 21:08 18,4 C 15,0 C 81 % 0 lf 1016,7 hPa 0,0 l/m 0 min 0 min 8 W/m 6,3 km/h (2 Bft)
04.08.2015 21:10 18,3 C 15,0 C 81 % 0 lf 1016,7 hPa 0,0 l/m 0 min 0 min 7 W/m 4,2 km/h (1 Bft)
04.08.2015 21:12 18,3 C 15,0 C 81 % 0 lf 1016,7 hPa 0,0 l/m 0 min 0 min 6 W/m 4,2 km/h (1 Bft)
04.08.2015 21:14 18,2 C 15,0 C 81 % 0 lf 1016,7 hPa 0,0 l/m 0 min 0 min 5 W/m 4,2 km/h (1 Bft)
04.08.2015 21:16 18,2 C 15,0 C 81 % 0 lf 1016,7 hPa 0,0 l/m 0 min 0 min 5 W/m 2,1 km/h (1 Bft)
04.08.2015 21:18 18,2 C 15,0 C 81 % 0 lf 1016,7 hPa 0,0 l/m 0 min 0 min 5 W/m 4,2 km/h (1 Bft)
04.08.2015 21:20 18,1 C 15,0 C 81 % 0 lf 1016,7 hPa 0,0 l/m 0 min 0 min 0 W/m 4,2 km/h (1 Bft)
04.08.2015 21:22 18,1 C 14,4 C 82 % 0 lf 1016,7 hPa 0,0 l/m 0 min 0 min 0 W/m 2,1 km/h (1 Bft)
04.08.2015 21:24 18,1 C 14,4 C 82 % 0 lf 1016,8 hPa 0,0 l/m 0 min 0 min 0 W/m 4,2 km/h (1 Bft)
04.08.2015 21:26 18,0 C 14,4 C 82 % 0 lf 1016,8 hPa 0,0 l/m 0 min 0 min 0 W/m 2,1 km/h (1 Bft)
04.08.2015 21:28 18,0 C 14,4 C 82 % 0 lf 1016,8 hPa 0,0 l/m 0 min 0 min 0 W/m 2,1 km/h (1 Bft)
04.08.2015 21:30 17,9 C 14,4 C 83 % 0 lf 1016,8 hPa 0,0 l/m 0 min 0 min 0 W/m 2,1 km/h (1 Bft)
04.08.2015 21:32 17,9 C 14,4 C 83 % 0 lf 1016,9 hPa 0,0 l/m 0 min 0 min 0 W/m 4,2 km/h (1 Bft)
04.08.2015 21:34 17,8 C 14,4 C 83 % 1 lf 1016,9 hPa 0,0 l/m 0 min 0 min 0 W/m 4,2 km/h (1 Bft)
04.08.2015 21:36 17,8 C 14,4 C 84 % 1 lf 1016,9 hPa 0,0 l/m 0 min 0 min 0 W/m 4,2 km/h (1 Bft)
04.08.2015 21:38 17,8 C 13,9 C 84 % 1 lf 1016,9 hPa 0,0 l/m 0 min 0 min 0 W/m 4,2 km/h (1 Bft)
04.08.2015 21:40 17,7 C 13,9 C 84 % 1 lf 1016,9 hPa 0,0 l/m 0 min 0 min 0 W/m 4,2 km/h (1 Bft)
04.08.2015 21:42 17,7 C 13,9 C 84 % 1 lf 1016,9 hPa 0,0 l/m 0 min 0 min 0 W/m 4,2 km/h (1 Bft)
04.08.2015 21:44 17,6 C 13,9 C 85 % 1 lf 1016,9 hPa 0,0 l/m 0 min 0 min 0 W/m 4,2 km/h (1 Bft)
04.08.2015 21:46 17,5 C 13,9 C 85 % 1 lf 1016,9 hPa 0,0 l/m 0 min 0 min 0 W/m 4,2 km/h (1 Bft)
04.08.2015 21:48 17,4 C 13,9 C 85 % 1 lf 1016,9 hPa 0,0 l/m 0 min 0 min 0 W/m 4,2 km/h (1 Bft)
04.08.2015 21:50 17,4 C 13,9 C 85 % 1 lf 1017,0 hPa 0,0 l/m 0 min 0 min 0 W/m 4,2 km/h (1 Bft)
04.08.2015 21:52 17,3 C 13,9 C 85 % 1 lf 1017,1 hPa 0,0 l/m 0 min 0 min 0 W/m 2,1 km/h (1 Bft)
04.08.2015 21:54 17,3 C 13,9 C 86 % 1 lf 1017,1 hPa 0,0 l/m 0 min 0 min 0 W/m 2,1 km/h (1 Bft)
04.08.2015 21:56 17,2 C 13,9 C 86 % 1 lf 1017,1 hPa 0,0 l/m 0 min 0 min 0 W/m 2,1 km/h (1 Bft)
04.08.2015 21:58 17,1 C 13,9 C 86 % 1 lf 1017,1 hPa 0,0 l/m 0 min 0 min 0 W/m 2,1 km/h (1 Bft)
04.08.2015 22:00 17,1 C 13,9 C 86 % 1 lf 1017,1 hPa 0,0 l/m 0 min 0 min 0 W/m 4,2 km/h (1 Bft)
04.08.2015 22:02 17,0 C 13,9 C 86 % 1 lf 1017,2 hPa 0,0 l/m 0 min 0 min 0 W/m 6,3 km/h (2 Bft)
04.08.2015 22:04 16,9 C 13,9 C 86 % 1 lf 1017,2 hPa 0,0 l/m 0 min 0 min 0 W/m 6,3 km/h (2 Bft)
04.08.2015 22:06 16,9 C 13,9 C 86 % 1 lf 1017,2 hPa 0,0 l/m 0 min 0 min 0 W/m 4,2 km/h (1 Bft)
04.08.2015 22:08 16,9 C 13,9 C 86 % 1 lf 1017,2 hPa 0,0 l/m 0 min 0 min 0 W/m 4,2 km/h (1 Bft)
04.08.2015 22:10 16,8 C 13,9 C 86 % 1 lf 1017,2 hPa 0,0 l/m 0 min 0 min 0 W/m 4,2 km/h (1 Bft)
04.08.2015 22:12 16,8 C 13,9 C 86 % 1 lf 1017,1 hPa 0,0 l/m 0 min 0 min 0 W/m 4,2 km/h (1 Bft)
04.08.2015 22:14 16,7 C 13,9 C 87 % 1 lf 1017,1 hPa 0,0 l/m 0 min 0 min 0 W/m 4,2 km/h (1 Bft)
04.08.2015 22:16 16,7 C 13,9 C 87 % 1 lf 1017,1 hPa 0,0 l/m 0 min 0 min 0 W/m 4,2 km/h (1 Bft)
04.08.2015 22:18 16,7 C 13,9 C 87 % 1 lf 1017,1 hPa 0,0 l/m 0 min 0 min 0 W/m 4,2 km/h (1 Bft)
04.08.2015 22:20 16,6 C 13,9 C 87 % 1 lf 1017,2 hPa 0,0 l/m 0 min 0 min 0 W/m 4,2 km/h (1 Bft)
04.08.2015 22:22 16,6 C 13,9 C 87 % 1 lf 1017,2 hPa 0,0 l/m 0 min 0 min 0 W/m 4,2 km/h (1 Bft)
04.08.2015 22:24 16,6 C 13,9 C 87 % 1 lf 1017,1 hPa 0,0 l/m 0 min 0 min 0 W/m 6,3 km/h (2 Bft)
04.08.2015 22:26 16,5 C 13,9 C 88 % 1 lf 1017,1 hPa 0,0 l/m 0 min 0 min 0 W/m 4,2 km/h (1 Bft)
04.08.2015 22:28 16,4 C 13,3 C 88 % 1 lf 1017,1 hPa 0,0 l/m 0 min 0 min 0 W/m 2,1 km/h (1 Bft)
04.08.2015 22:30 16,4 C 13,3 C 88 % 1 lf 1017,2 hPa 0,0 l/m 0 min 0 min 0 W/m 4,2 km/h (1 Bft)
04.08.2015 22:32 16,4 C 13,3 C 88 % 1 lf 1017,2 hPa 0,0 l/m 0 min 0 min 0 W/m 4,2 km/h (1 Bft)
04.08.2015 22:34 16,3 C 13,3 C 88 % 2 lf 1017,2 hPa 0,0 l/m 0 min 0 min 0 W/m 4,2 km/h (1 Bft)
04.08.2015 22:36 16,3 C 13,3 C 88 % 2 lf 1017,2 hPa 0,0 l/m 0 min 0 min 0 W/m 4,2 km/h (1 Bft)
04.08.2015 22:38 16,2 C 13,3 C 88 % 2 lf 1017,2 hPa 0,0 l/m 0 min 0 min 0 W/m 4,2 km/h (1 Bft)
04.08.2015 22:40 16,2 C 13,3 C 88 % 2 lf 1017,2 hPa 0,0 l/m 0 min 0 min 0 W/m 2,1 km/h (1 Bft)
04.08.2015 22:42 16,2 C 13,3 C 88 % 2 lf 1017,1 hPa 0,0 l/m 0 min 0 min 0 W/m 6,3 km/h (2 Bft)
04.08.2015 22:44 16,2 C 13,3 C 88 % 2 lf 1017,2 hPa 0,0 l/m 0 min 0 min 0 W/m 4,2 km/h (1 Bft)
04.08.2015 22:46 16,1 C 13,3 C 89 % 2 lf 1017,1 hPa 0,0 l/m 0 min 0 min 0 W/m 4,2 km/h (1 Bft)
04.08.2015 22:48 16,1 C 13,3 C 89 % 2 lf 1017,1 hPa 0,0 l/m 0 min 0 min 0 W/m 6,3 km/h (2 Bft)
04.08.2015 22:50 16,1 C 13,3 C 89 % 2 lf 1017,2 hPa 0,0 l/m 0 min 0 min 0 W/m 2,1 km/h (1 Bft)
04.08.2015 22:52 16,0 C 13,3 C 89 % 2 lf 1017,1 hPa 0,0 l/m 0 min 0 min 0 W/m 4,2 km/h (1 Bft)
04.08.2015 22:54 16,0 C 13,3 C 89 % 2 lf 1017,1 hPa 0,0 l/m 0 min 0 min 0 W/m 4,2 km/h (1 Bft)
04.08.2015 22:56 15,9 C 13,3 C 89 % 2 lf 1017,2 hPa 0,0 l/m 0 min 0 min 0 W/m 4,2 km/h (1 Bft)
04.08.2015 22:58 15,9 C 13,3 C 90 % 2 lf 1017,1 hPa 0,0 l/m 0 min 0 min 0 W/m 4,2 km/h (1 Bft)
04.08.2015 23:00 15,9 C 13,3 C 90 % 2 lf 1017,1 hPa 0,0 l/m 0 min 0 min 0 W/m 6,3 km/h (2 Bft)
04.08.2015 23:02 15,8 C 13,3 C 90 % 2 lf 1017,1 hPa 0,0 l/m 0 min 0 min 0 W/m 6,3 km/h (2 Bft)
04.08.2015 23:04 15,8 C 13,3 C 90 % 2 lf 1017,2 hPa 0,0 l/m 0 min 0 min 0 W/m 8,4 km/h (2 Bft)
04.08.2015 23:06 15,8 C 13,3 C 90 % 2 lf 1017,2 hPa 0,0 l/m 0 min 0 min 0 W/m 6,3 km/h (2 Bft)
04.08.2015 23:08 15,8 C 13,3 C 90 % 2 lf 1017,2 hPa 0,0 l/m 0 min 0 min 0 W/m 8,4 km/h (2 Bft)
04.08.2015 23:10 15,7 C 13,3 C 90 % 2 lf 1017,2 hPa 0,0 l/m 0 min 0 min 0 W/m 6,3 km/h (2 Bft)
04.08.2015 23:12 15,7 C 13,3 C 91 % 2 lf 1017,2 hPa 0,0 l/m 0 min 0 min 0 W/m 4,2 km/h (1 Bft)
04.08.2015 23:14 15,7 C 13,3 C 91 % 3 lf 1017,2 hPa 0,0 l/m 0 min 0 min 0 W/m 6,3 km/h (2 Bft)
04.08.2015 23:16 15,7 C 13,3 C 91 % 3 lf 1017,3 hPa 0,0 l/m 0 min 0 min 0 W/m 8,4 km/h (2 Bft)
04.08.2015 23:18 15,7 C 13,3 C 91 % 3 lf 1017,3 hPa 0,0 l/m 0 min 0 min 0 W/m 8,4 km/h (2 Bft)
04.08.2015 23:20 15,7 C 13,3 C 91 % 3 lf 1017,4 hPa 0,0 l/m 0 min 0 min 0 W/m 8,4 km/h (2 Bft)
04.08.2015 23:22 15,6 C 13,3 C 91 % 3 lf 1017,4 hPa 0,0 l/m 0 min 0 min 0 W/m 8,4 km/h (2 Bft)
04.08.2015 23:24 15,6 C 13,3 C 91 % 3 lf 1017,4 hPa 0,0 l/m 0 min 0 min 0 W/m 8,4 km/h (2 Bft)
04.08.2015 23:26 15,6 C 13,3 C 92 % 3 lf 1017,4 hPa 0,0 l/m 0 min 0 min 0 W/m 6,3 km/h (2 Bft)
04.08.2015 23:28 15,6 C 13,3 C 91 % 3 lf 1017,4 hPa 0,0 l/m 0 min 0 min 0 W/m 12,6 km/h (3 Bft)
04.08.2015 23:30 15,6 C 13,3 C 92 % 3 lf 1017,5 hPa 0,0 l/m 0 min 0 min 0 W/m 8,4 km/h (2 Bft)
04.08.2015 23:32 15,6 C 13,3 C 92 % 3 lf 1017,5 hPa 0,0 l/m 0 min 0 min 0 W/m 8,4 km/h (2 Bft)
04.08.2015 23:34 15,6 C 13,3 C 92 % 3 lf 1017,5 hPa 0,0 l/m 0 min 0 min 0 W/m 6,3 km/h (2 Bft)
04.08.2015 23:36 15,5 C 13,3 C 92 % 3 lf 1017,6 hPa 0,0 l/m 0 min 0 min 0 W/m 8,4 km/h (2 Bft)
04.08.2015 23:38 15,5 C 13,3 C 92 % 3 lf 1017,6 hPa 0,0 l/m 0 min 0 min 0 W/m 8,4 km/h (2 Bft)
04.08.2015 23:40 15,5 C 13,3 C 92 % 3 lf 1017,6 hPa 0,0 l/m 0 min 0 min 0 W/m 8,4 km/h (2 Bft)
04.08.2015 23:42 15,4 C 13,3 C 92 % 4 lf 1017,6 hPa 0,0 l/m 0 min 0 min 0 W/m 8,4 km/h (2 Bft)
04.08.2015 23:44 15,4 C 13,3 C 92 % 4 lf 1017,7 hPa 0,0 l/m 0 min 0 min 0 W/m 4,2 km/h (1 Bft)
04.08.2015 23:46 15,4 C 13,3 C 92 % 4 lf 1017,7 hPa 0,0 l/m 0 min 0 min 0 W/m 6,3 km/h (2 Bft)
04.08.2015 23:48 15,4 C 12,8 C 92 % 4 lf 1017,6 hPa 0,0 l/m 0 min 0 min 0 W/m 8,4 km/h (2 Bft)
04.08.2015 23:50 15,4 C 12,8 C 92 % 4 lf 1017,6 hPa 0,0 l/m 0 min 0 min 0 W/m 6,3 km/h (2 Bft)
04.08.2015 23:52 15,4 C 12,8 C 92 % 5 lf 1017,6 hPa 0,0 l/m 0 min 0 min 0 W/m 6,3 km/h (2 Bft)
04.08.2015 23:54 15,3 C 12,8 C 92 % 6 lf 1017,6 hPa 0,0 l/m 0 min 0 min 0 W/m 6,3 km/h (2 Bft)
04.08.2015 23:56 15,3 C 12,8 C 92 % 7 lf 1017,6 hPa 0,0 l/m 0 min 0 min 0 W/m 6,3 km/h (2 Bft)
04.08.2015 23:58 15,3 C 12,8 C 92 % 8 lf 1017,6 hPa 0,0 l/m 0 min 0 min 0 W/m 6,3 km/h (2 Bft)
_ Min-Zeit 23:54 23:48 00:00 00:00 05:48 - - - - 00:10
Minimum _ 15,3 C 12,8 C 69 % 0 lf 1007,9 hPa - - - - 0,0 km/h (0 Bft)
_ Max-Zeit 00:00 03:18 15:20 06:44 23:44 13:00 16:00 06:20 17:34 14:18
Maximum _ 22,4 C 19,4 C 96 % 15 lf 1017,7 hPa 0,4 l/m 2 min 2 min 565 W/m 31,4 km/h
W-SW (5 Bft)
Durchschnitt _ 19,3 C 17,0 C 83 % 6 lf 1012,6 hPa #6,4 l/m #2:16 h #7:01 h 103 W/m 10,8 km/h (2 Bft)
© 2015 W. Hausmann